Observation data for Fort Lewis CO on 11/19/2019      Previous  Date  Next       Current Mesonet Observations  Soil Data  Daily Summary Page  Observations in Plain Language
KFL1 190600Z 03008KT 01/M09 A3015 RMK A01 T00061087  RH  050%=      5-min Rain = 0
KFL1 190601Z 04008KT 01/M09 A3015 RMK A01 T00061085  RH  051%=      5-min Rain = 0
KFL1 190602Z 04007KT 01/M08 A3015 RMK A01 T00091080  RH  051%=      5-min Rain = 0
KFL1 190603Z 03008KT 02/M08 A3015 RMK A01 T00161075  RH  051%=      5-min Rain = 0
KFL1 190604Z 03008KT 02/M07 A3015 RMK A01 T00211073  RH  050%=      5-min Rain = 0
KFL1 190605Z 03007KT 03/M07 A3015 RMK A01 T00281070  RH  048%=      5-min Rain = 0
KFL1 190606Z 03006KT 03/M07 A3015 RMK A01 T00311072  RH  047%=      5-min Rain = 0
KFL1 190607Z 03007KT 03/M07 A3015 RMK A01 T00321074  RH  046%=      5-min Rain = 0
KFL1 190608Z 03007KT 03/M08 A3015 RMK A01 T00291076  RH  046%=      5-min Rain = 0
KFL1 190609Z 04007KT 03/M08 A3015 RMK A01 T00281076  RH  046%=      5-min Rain = 0
KFL1 190610Z 03007KT 03/M08 A3015 RMK A01 T00281077  RH  046%=      5-min Rain = 0
KFL1 190611Z 03006KT 03/M08 A3015 RMK A01 T00291078  RH  045%=      5-min Rain = 0
KFL1 190612Z 03006KT 03/M08 A3015 RMK A01 T00291080  RH  045%=      5-min Rain = 0
KFL1 190613Z 04008KT 03/M08 A3015 RMK A01 T00291081  RH  044%=      5-min Rain = 0
KFL1 190614Z 03008KT 03/M08 A3015 RMK A01 T00271084  RH  044%=      5-min Rain = 0
KFL1 190615Z 04008KT 03/M09 A3015 RMK A01 T00261085  RH  044%=      5-min Rain = 0
KFL1 190616Z 03007KT 03/M08 A3015 RMK A01 T00261084  RH  044%=      5-min Rain = 0
KFL1 190617Z 03007KT 03/M08 A3015 RMK A01 T00261083  RH  044%=      5-min Rain = 0
KFL1 190618Z 03005KT 02/M08 A3015 RMK A01 T00241083  RH  045%=      5-min Rain = 0
KFL1 190619Z 04004KT 02/M09 A3015 RMK A01 T00181086  RH  046%=      5-min Rain = 0
KFL1 190620Z 03005KT 01/M09 A3015 RMK A01 T00141087  RH  047%=      5-min Rain = 0
KFL1 190621Z 03007KT 01/M09 A3015 RMK A01 T00141085  RH  048%=      5-min Rain = 0
KFL1 190622Z 03007KT 01/M09 A3015 RMK A01 T00131087  RH  047%=      5-min Rain = 0
KFL1 190623Z 03008KT 01/M09 A3015 RMK A01 T00131086  RH  048%=      5-min Rain = 0
KFL1 190624Z 03008KT 01/M09 A3015 RMK A01 T00111086  RH  048%=      5-min Rain = 0
KFL1 190625Z 03007KT 01/M09 A3015 RMK A01 T00081088  RH  049%=      5-min Rain = 0
KFL1 190626Z 03008KT 01/M09 A3015 RMK A01 T00061088  RH  049%=      5-min Rain = 0
KFL1 190627Z 03008KT 00/M09 A3015 RMK A01 T00041089  RH  050%=      5-min Rain = 0
KFL1 190628Z 03008KT 00/M09 A3015 RMK A01 T00031089  RH  050%=      5-min Rain = 0
KFL1 190629Z 03008KT 00/M09 A3015 RMK A01 T00021088  RH  051%=      5-min Rain = 0
KFL1 190630Z 03008KT M00/M09 A3014 RMK A01 T10021090  RH  051%=      5-min Rain = 0
KFL1 190631Z 03007KT M01/M09 A3014 RMK A01 T10051091  RH  052%=      5-min Rain = 0
KFL1 190632Z 03007KT M01/M09 A3014 RMK A01 T10051089  RH  053%=      5-min Rain = 0
KFL1 190633Z 03007KT M01/M09 A3014 RMK A01 T10051089  RH  053%=      5-min Rain = 0
KFL1 190634Z 03007KT M01/M09 A3014 RMK A01 T10051088  RH  054%=      5-min Rain = 0
KFL1 190635Z 03007KT M01/M09 A3014 RMK A01 T10051087  RH  054%=      5-min Rain = 0
KFL1 190636Z 03008KT M01/M09 A3014 RMK A01 T10051088  RH  054%=      5-min Rain = 0
KFL1 190637Z 03008KT M01/M09 A3014 RMK A01 T10051087  RH  054%=      5-min Rain = 0
KFL1 190638Z 03007KT M00/M09 A3014 RMK A01 T10041089  RH  053%=      5-min Rain = 0
KFL1 190639Z 04006KT M00/M09 A3014 RMK A01 T10021088  RH  052%=      5-min Rain = 0
KFL1 190640Z 03005KT M00/M09 A3014 RMK A01 T10031088  RH  052%=      5-min Rain = 0
KFL1 190641Z 03004KT M01/M09 A3014 RMK A01 T10051089  RH  053%=      5-min Rain = 0
KFL1 190642Z 03004KT M00/M09 A3014 RMK A01 T10041086  RH  054%=      5-min Rain = 0
KFL1 190643Z 03005KT M01/M09 A3014 RMK A01 T10071088  RH  054%=      5-min Rain = 0
KFL1 190644Z 03006KT M01/M09 A3014 RMK A01 T10081088  RH  055%=      5-min Rain = 0
KFL1 190645Z 03006KT M01/M09 A3014 RMK A01 T10071088  RH  054%=      5-min Rain = 0
KFL1 190646Z 03007KT M01/M09 A3014 RMK A01 T10061087  RH  054%=      5-min Rain = 0
KFL1 190647Z 03007KT M01/M09 A3014 RMK A01 T10071088  RH  054%=      5-min Rain = 0
KFL1 190648Z 03006KT M01/M09 A3014 RMK A01 T10091088  RH  055%=      5-min Rain = 0
KFL1 190649Z 03006KT M01/M09 A3014 RMK A01 T10071086  RH  055%=      5-min Rain = 0
KFL1 190650Z 03006KT M01/M09 A3014 RMK A01 T10061087  RH  054%=      5-min Rain = 0
KFL1 190651Z 03005KT M01/M09 A3014 RMK A01 T10061089  RH  053%=      5-min Rain = 0
KFL1 190652Z 04005KT M01/M09 A3014 RMK A01 T10051090  RH  052%=      5-min Rain = 0
KFL1 190653Z 04006KT M00/M09 A3014 RMK A01 T10041092  RH  051%=      5-min Rain = 0
KFL1 190654Z 04006KT M00/M09 A3014 RMK A01 T10031092  RH  051%=      5-min Rain = 0
KFL1 190655Z 03006KT M00/M09 A3014 RMK A01 T10011091  RH  051%=      5-min Rain = 0
KFL1 190656Z 03006KT 00/M09 A3014 RMK A01 T00011091  RH  050%=      5-min Rain = 0
KFL1 190657Z 03004KT M01/M10 A3014 RMK A01 T10101098  RH  052%=      5-min Rain = 0
KFL1 190658Z 03004KT M02/M10 A3014 RMK A01 T10211099  RH  055%=      5-min Rain = 0
KFL1 190659Z 03005KT M03/M10 A3014 RMK A01 T10261095  RH  059%=      5-min Rain = 0
KFL1 190700Z 03006KT M03/M09 A3014 RMK A01 T10291093  RH  061%=      5-min Rain = 0
KFL1 190701Z 02007KT M03/M09 A3014 RMK A01 T10301092  RH  063%=      5-min Rain = 0
KFL1 190702Z 03007KT M03/M09 A3014 RMK A01 T10311090  RH  064%=      5-min Rain = 0
KFL1 190703Z 03007KT M03/M09 A3014 RMK A01 T10321090  RH  064%=      5-min Rain = 0
KFL1 190704Z 03007KT M03/M09 A3014 RMK A01 T10331090  RH  065%=      5-min Rain = 0
KFL1 190705Z 03006KT M03/M09 A3014 RMK A01 T10321088  RH  065%=      5-min Rain = 0
KFL1 190706Z 02006KT M02/M08 A3014 RMK A01 T10241083  RH  064%=      5-min Rain = 0
KFL1 190707Z 02007KT M02/M08 A3014 RMK A01 T10201084  RH  062%=      5-min Rain = 0
KFL1 190708Z 03007KT M02/M08 A3014 RMK A01 T10171083  RH  061%=      5-min Rain = 0
KFL1 190709Z 03007KT M02/M08 A3014 RMK A01 T10171084  RH  060%=      5-min Rain = 0
KFL1 190710Z 03007KT M02/M08 A3014 RMK A01 T10161084  RH  060%=      5-min Rain = 0
KFL1 190711Z 03006KT M02/M08 A3014 RMK A01 T10161084  RH  060%=      5-min Rain = 0
KFL1 190712Z 03006KT M02/M08 A3014 RMK A01 T10171084  RH  061%=      5-min Rain = 0
KFL1 190713Z 03006KT M02/M09 A3014 RMK A01 T10201085  RH  061%=      5-min Rain = 0
KFL1 190714Z 03006KT M02/M09 A3014 RMK A01 T10211085  RH  061%=      5-min Rain = 0
KFL1 190715Z 03006KT M02/M09 A3014 RMK A01 T10211086  RH  061%=      5-min Rain = 0
KFL1 190716Z 03005KT M02/M09 A3014 RMK A01 T10211087  RH  061%=      5-min Rain = 0
KFL1 190717Z 04004KT M02/M09 A3014 RMK A01 T10211087  RH  061%=      5-min Rain = 0
KFL1 190718Z 04003KT M02/M09 A3014 RMK A01 T10211086  RH  061%=      5-min Rain = 0
KFL1 190719Z 03004KT M02/M09 A3014 RMK A01 T10211086  RH  061%=      5-min Rain = 0
KFL1 190720Z 03005KT M02/M09 A3014 RMK A01 T10231087  RH  062%=      5-min Rain = 0
KFL1 190721Z 02005KT M03/M09 A3014 RMK A01 T10261088  RH  063%=      5-min Rain = 0
KFL1 190722Z 03006KT M03/M09 A3014 RMK A01 T10251086  RH  063%=      5-min Rain = 0
KFL1 190723Z 04007KT M02/M09 A3014 RMK A01 T10221085  RH  062%=      5-min Rain = 0
KFL1 190724Z 04007KT M02/M08 A3014 RMK A01 T10181083  RH  061%=      5-min Rain = 0
KFL1 190725Z 03007KT M02/M08 A3014 RMK A01 T10151083  RH  060%=      5-min Rain = 0
KFL1 190726Z 03007KT M01/M08 A3014 RMK A01 T10141083  RH  059%=      5-min Rain = 0
KFL1 190727Z 02007KT M02/M09 A3014 RMK A01 T10171087  RH  059%=      5-min Rain = 0
KFL1 190728Z 02007KT M02/M09 A3014 RMK A01 T10231089  RH  061%=      5-min Rain = 0
KFL1 190729Z 03007KT M02/M09 A3014 RMK A01 T10221086  RH  062%=      5-min Rain = 0
KFL1 190730Z 03007KT M02/M08 A3014 RMK A01 T10201084  RH  062%=      5-min Rain = 0
KFL1 190731Z 03007KT M02/M09 A3014 RMK A01 T10221086  RH  062%=      5-min Rain = 0
KFL1 190732Z 03007KT M03/M09 A3014 RMK A01 T10261087  RH  063%=      5-min Rain = 0
KFL1 190733Z 03007KT M03/M09 A3014 RMK A01 T10281087  RH  064%=      5-min Rain = 0
KFL1 190734Z 03006KT M03/M09 A3014 RMK A01 T10291086  RH  065%=      5-min Rain = 0
KFL1 190735Z 02006KT M03/M09 A3014 RMK A01 T10281085  RH  065%=      5-min Rain = 0
KFL1 190736Z 02006KT M03/M09 A3014 RMK A01 T10291086  RH  065%=      5-min Rain = 0
KFL1 190737Z 03006KT M03/M09 A3014 RMK A01 T10291086  RH  065%=      5-min Rain = 0
KFL1 190738Z 03006KT M03/M09 A3014 RMK A01 T10281085  RH  065%=      5-min Rain = 0
KFL1 190739Z 03005KT M03/M09 A3014 RMK A01 T10281086  RH  065%=      5-min Rain = 0
KFL1 190740Z 03005KT M03/M08 A3014 RMK A01 T10271084  RH  065%=      5-min Rain = 0
KFL1 190741Z 02005KT M03/M08 A3014 RMK A01 T10271083  RH  065%=      5-min Rain = 0
KFL1 190742Z 02005KT M03/M08 A3014 RMK A01 T10261083  RH  065%=      5-min Rain = 0
KFL1 190743Z 02005KT M02/M08 A3014 RMK A01 T10231082  RH  064%=      5-min Rain = 0
KFL1 190744Z 02005KT M02/M08 A3014 RMK A01 T10221082  RH  064%=      5-min Rain = 0
KFL1 190745Z 02005KT M02/M08 A3014 RMK A01 T10221082  RH  063%=      5-min Rain = 0
KFL1 190746Z 02005KT M02/M08 A3014 RMK A01 T10221083  RH  063%=      5-min Rain = 0
KFL1 190747Z 02005KT M02/M08 A3014 RMK A01 T10221083  RH  063%=      5-min Rain = 0
KFL1 190748Z 02005KT M02/M08 A3014 RMK A01 T10221083  RH  063%=      5-min Rain = 0
KFL1 190749Z 02005KT M02/M08 A3014 RMK A01 T10221082  RH  063%=      5-min Rain = 0
KFL1 190750Z 02005KT M02/M08 A3014 RMK A01 T10231082  RH  064%=      5-min Rain = 0
KFL1 190751Z 02005KT M03/M08 A3014 RMK A01 T10261084  RH  064%=      5-min Rain = 0
KFL1 190752Z 03005KT M03/M08 A3014 RMK A01 T10281084  RH  065%=      5-min Rain = 0
KFL1 190753Z 02005KT M03/M08 A3014 RMK A01 T10291083  RH  066%=      5-min Rain = 0
KFL1 190754Z 02007KT M03/M08 A3014 RMK A01 T10291082  RH  067%=      5-min Rain = 0
KFL1 190755Z 02007KT M03/M08 A3014 RMK A01 T10291081  RH  067%=      5-min Rain = 0
KFL1 190756Z 02006KT M03/M08 A3014 RMK A01 T10281080  RH  067%=      5-min Rain = 0
KFL1 190757Z 02006KT M03/M08 A3014 RMK A01 T10301082  RH  067%=      5-min Rain = 0
KFL1 190758Z 01005KT M03/M08 A3014 RMK A01 T10301081  RH  068%=      5-min Rain = 0
KFL1 190759Z 01005KT M03/M08 A3014 RMK A01 T10331082  RH  068%=      5-min Rain = 0
KFL1 190800Z 01005KT M03/M08 A3014 RMK A01 T10321081  RH  069%=      5-min Rain = 0
KFL1 190801Z 02006KT M03/M08 A3014 RMK A01 T10311079  RH  069%=      5-min Rain = 0
KFL1 190802Z 01006KT M03/M08 A3014 RMK A01 T10271077  RH  069%=      5-min Rain = 0
KFL1 190803Z 02006KT M02/M08 A3014 RMK A01 T10241076  RH  067%=      5-min Rain = 0
KFL1 190804Z 02006KT M02/M08 A3014 RMK A01 T10221076  RH  066%=      5-min Rain = 0
KFL1 190805Z 01006KT M02/M08 A3014 RMK A01 T10231078  RH  066%=      5-min Rain = 0
KFL1 190806Z 01006KT M02/M08 A3014 RMK A01 T10221078  RH  066%=      5-min Rain = 0
KFL1 190807Z 01006KT M02/M08 A3014 RMK A01 T10231079  RH  066%=      5-min Rain = 0
KFL1 190808Z 01006KT M02/M08 A3014 RMK A01 T10231079  RH  065%=      5-min Rain = 0
KFL1 190809Z 01005KT M02/M08 A3014 RMK A01 T10221079  RH  065%=      5-min Rain = 0
KFL1 190810Z 02005KT M02/M08 A3014 RMK A01 T10221079  RH  065%=      5-min Rain = 0
KFL1 190811Z 03005KT M02/M08 A3014 RMK A01 T10231080  RH  065%=      5-min Rain = 0
KFL1 190812Z 03005KT M02/M08 A3014 RMK A01 T10241080  RH  065%=      5-min Rain = 0
KFL1 190813Z 02005KT M03/M08 A3014 RMK A01 T10261080  RH  066%=      5-min Rain = 0
KFL1 190814Z 02005KT M03/M08 A3014 RMK A01 T10291081  RH  067%=      5-min Rain = 0
KFL1 190815Z 02006KT M03/M08 A3014 RMK A01 T10291079  RH  068%=      5-min Rain = 0
KFL1 190816Z 02005KT M03/M08 A3013 RMK A01 T10291078  RH  069%=      5-min Rain = 0
KFL1 190817Z 02005KT M03/M08 A3013 RMK A01 T10301078  RH  069%=      5-min Rain = 0
KFL1 190818Z 03006KT M03/M08 A3013 RMK A01 T10281077  RH  069%=      5-min Rain = 0
KFL1 190819Z 03006KT M03/M08 A3013 RMK A01 T10281077  RH  069%=      5-min Rain = 0
KFL1 190820Z 03006KT M03/M08 A3013 RMK A01 T10281078  RH  068%=      5-min Rain = 0
KFL1 190821Z 02006KT M03/M08 A3013 RMK A01 T10301080  RH  068%=      5-min Rain = 0
KFL1 190822Z 02005KT M03/M08 A3013 RMK A01 T10321080  RH  070%=      5-min Rain = 0
KFL1 190823Z 02005KT M03/M08 A3013 RMK A01 T10311077  RH  071%=      5-min Rain = 0
KFL1 190824Z 02005KT M03/M08 A3013 RMK A01 T10331078  RH  071%=      5-min Rain = 0
KFL1 190825Z 02005KT M04/M08 A3013 RMK A01 T10351079  RH  072%=      5-min Rain = 0
KFL1 190826Z 02005KT M04/M08 A3013 RMK A01 T10361078  RH  072%=      5-min Rain = 0
KFL1 190827Z 02005KT M04/M08 A3013 RMK A01 T10361077  RH  073%=      5-min Rain = 0
KFL1 190828Z 02004KT M04/M08 A3013 RMK A01 T10361077  RH  073%=      5-min Rain = 0
KFL1 190829Z 02005KT M04/M08 A3013 RMK A01 T10371077  RH  074%=      5-min Rain = 0
KFL1 190830Z 02005KT M04/M08 A3013 RMK A01 T10361075  RH  074%=      5-min Rain = 0
KFL1 190831Z 02004KT M04/M08 A3013 RMK A01 T10351076  RH  074%=      5-min Rain = 0
KFL1 190832Z 02004KT M04/M08 A3013 RMK A01 T10351076  RH  073%=      5-min Rain = 0
KFL1 190833Z 03004KT M03/M08 A3013 RMK A01 T10331075  RH  073%=      5-min Rain = 0
KFL1 190834Z 03005KT M03/M07 A3013 RMK A01 T10311074  RH  072%=      5-min Rain = 0
KFL1 190835Z 04003KT M03/M07 A3013 RMK A01 T10281073  RH  071%=      5-min Rain = 0
KFL1 190836Z 05002KT M03/M07 A3013 RMK A01 T10271074  RH  070%=      5-min Rain = 0
KFL1 190837Z 06001KT M03/M07 A3013 RMK A01 T10261073  RH  070%=      5-min Rain = 0
KFL1 190838Z 05002KT M03/M07 A3014 RMK A01 T10251073  RH  070%=      5-min Rain = 0
KFL1 190839Z 04003KT M02/M07 A3014 RMK A01 T10221072  RH  068%=      5-min Rain = 0
KFL1 190840Z 04004KT M02/M08 A3014 RMK A01 T10231076  RH  067%=      5-min Rain = 0
KFL1 190841Z 05004KT M02/M08 A3014 RMK A01 T10221077  RH  066%=      5-min Rain = 0
KFL1 190842Z 05005KT M02/M08 A3014 RMK A01 T10201077  RH  065%=      5-min Rain = 0
KFL1 190843Z 05005KT M02/M08 A3014 RMK A01 T10201079  RH  064%=      5-min Rain = 0
KFL1 190844Z 05006KT M02/M08 A3014 RMK A01 T10191081  RH  063%=      5-min Rain = 0
KFL1 190845Z 05005KT M02/M08 A3014 RMK A01 T10171081  RH  062%=      5-min Rain = 0
KFL1 190846Z 05006KT M02/M08 A3014 RMK A01 T10151080  RH  061%=      5-min Rain = 0
KFL1 190847Z 05006KT M01/M08 A3014 RMK A01 T10141081  RH  061%=      5-min Rain = 0
KFL1 190848Z 05006KT M01/M08 A3014 RMK A01 T10131081  RH  060%=      5-min Rain = 0
KFL1 190849Z 05005KT M01/M08 A3014 RMK A01 T10081077  RH  059%=      5-min Rain = 0
KFL1 190850Z 04005KT M00/M08 A3014 RMK A01 T10041075  RH  059%=      5-min Rain = 0
KFL1 190851Z 04004KT M00/M08 A3014 RMK A01 T10031077  RH  057%=      5-min Rain = 0
KFL1 190852Z 05005KT M01/M08 A3014 RMK A01 T10081082  RH  057%=      5-min Rain = 0
KFL1 190853Z 04005KT M02/M09 A3014 RMK A01 T10201089  RH  059%=      5-min Rain = 0
KFL1 190854Z 04005KT M03/M09 A3014 RMK A01 T10291092  RH  062%=      5-min Rain = 0
KFL1 190855Z 04004KT M04/M09 A3014 RMK A01 T10361090  RH  066%=      5-min Rain = 0
KFL1 190856Z 04005KT M04/M09 A3014 RMK A01 T10371085  RH  069%=      5-min Rain = 0
KFL1 190857Z 05005KT M04/M08 A3014 RMK A01 T10381083  RH  071%=      5-min Rain = 0
KFL1 190858Z 04004KT M04/M08 A3014 RMK A01 T10401084  RH  071%=      5-min Rain = 0
KFL1 190859Z 04004KT M04/M09 A3014 RMK A01 T10431085  RH  072%=      5-min Rain = 0
KFL1 190900Z 04004KT M04/M08 A3014 RMK A01 T10431083  RH  074%=      5-min Rain = 0
KFL1 190901Z 04004KT M04/M08 A3014 RMK A01 T10441084  RH  074%=      5-min Rain = 0
KFL1 190902Z 04004KT M04/M08 A3014 RMK A01 T10441082  RH  075%=      5-min Rain = 0
KFL1 190903Z 04004KT M04/M08 A3014 RMK A01 T10431081  RH  075%=      5-min Rain = 0
KFL1 190904Z 04004KT M04/M08 A3014 RMK A01 T10441082  RH  075%=      5-min Rain = 0
KFL1 190905Z 04004KT M04/M08 A3014 RMK A01 T10431081  RH  075%=      5-min Rain = 0
KFL1 190906Z 04003KT M04/M08 A3014 RMK A01 T10411080  RH  074%=      5-min Rain = 0
KFL1 190907Z 04004KT M04/M08 A3014 RMK A01 T10401080  RH  074%=      5-min Rain = 0
KFL1 190908Z 04004KT M04/M08 A3014 RMK A01 T10371079  RH  073%=      5-min Rain = 0
KFL1 190909Z 04004KT M04/M08 A3014 RMK A01 T10351079  RH  072%=      5-min Rain = 0
KFL1 190910Z 04004KT M04/M08 A3014 RMK A01 T10351079  RH  071%=      5-min Rain = 0
KFL1 190911Z 04004KT M03/M08 A3014 RMK A01 T10331077  RH  071%=      5-min Rain = 0
KFL1 190912Z 04004KT M04/M08 A3014 RMK A01 T10351080  RH  071%=      5-min Rain = 0
KFL1 190913Z 04004KT M04/M08 A3014 RMK A01 T10381082  RH  071%=      5-min Rain = 0
KFL1 190914Z 04004KT M04/M08 A3014 RMK A01 T10391082  RH  072%=      5-min Rain = 0
KFL1 190915Z 04004KT M04/M08 A3014 RMK A01 T10401082  RH  073%=      5-min Rain = 0
KFL1 190916Z 03004KT M04/M08 A3014 RMK A01 T10391081  RH  073%=      5-min Rain = 0
KFL1 190917Z 03004KT M04/M08 A3014 RMK A01 T10381079  RH  073%=      5-min Rain = 0
KFL1 190918Z 03004KT M04/M08 A3014 RMK A01 T10371079  RH  073%=      5-min Rain = 0
KFL1 190919Z 02004KT M04/M08 A3014 RMK A01 T10381080  RH  073%=      5-min Rain = 0
KFL1 190920Z 02004KT M04/M08 A3014 RMK A01 T10391081  RH  073%=      5-min Rain = 0
KFL1 190921Z 02004KT M04/M08 A3014 RMK A01 T10401081  RH  073%=      5-min Rain = 0
KFL1 190922Z 01004KT M04/M08 A3014 RMK A01 T10371078  RH  074%=      5-min Rain = 0
KFL1 190923Z 01004KT M04/M08 A3014 RMK A01 T10371078  RH  073%=      5-min Rain = 0
KFL1 190924Z 01004KT M04/M08 A3014 RMK A01 T10371079  RH  073%=      5-min Rain = 0
KFL1 190925Z 00003KT M04/M08 A3014 RMK A01 T10391080  RH  073%=      5-min Rain = 0
KFL1 190926Z 00003KT M04/M08 A3014 RMK A01 T10421082  RH  074%=      5-min Rain = 0
KFL1 190927Z 36003KT M04/M08 A3014 RMK A01 T10441083  RH  075%=      5-min Rain = 0
KFL1 190928Z 36003KT M05/M08 A3014 RMK A01 T10471084  RH  075%=      5-min Rain = 0
KFL1 190929Z 00003KT M05/M08 A3014 RMK A01 T10481083  RH  076%=      5-min Rain = 0
KFL1 190930Z 35003KT M05/M08 A3014 RMK A01 T10481081  RH  077%=      5-min Rain = 0
KFL1 190931Z 36004KT M05/M08 A3014 RMK A01 T10471080  RH  078%=      5-min Rain = 0
KFL1 190932Z 00004KT M05/M08 A3014 RMK A01 T10461078  RH  078%=      5-min Rain = 0
KFL1 190933Z 00004KT M04/M08 A3014 RMK A01 T10431075  RH  078%=      5-min Rain = 0
KFL1 190934Z 01004KT M04/M07 A3014 RMK A01 T10381072  RH  078%=      5-min Rain = 0
KFL1 190935Z 01005KT M03/M07 A3014 RMK A01 T10321069  RH  076%=      5-min Rain = 0
KFL1 190936Z 00005KT M03/M07 A3014 RMK A01 T10301070  RH  074%=      5-min Rain = 0
KFL1 190937Z 00005KT M03/M07 A3014 RMK A01 T10301072  RH  073%=      5-min Rain = 0
KFL1 190938Z 36005KT M03/M07 A3014 RMK A01 T10311074  RH  072%=      5-min Rain = 0
KFL1 190939Z 35005KT M03/M07 A3014 RMK A01 T10321074  RH  073%=      5-min Rain = 0
KFL1 190940Z 35006KT M03/M07 A3014 RMK A01 T10321073  RH  073%=      5-min Rain = 0
KFL1 190941Z 35006KT M03/M07 A3014 RMK A01 T10341074  RH  074%=      5-min Rain = 0
KFL1 190942Z 36006KT M03/M07 A3014 RMK A01 T10341073  RH  075%=      5-min Rain = 0
KFL1 190943Z 35006KT M03/M07 A3014 RMK A01 T10341072  RH  075%=      5-min Rain = 0
KFL1 190944Z 35005KT M03/M07 A3014 RMK A01 T10321071  RH  075%=      5-min Rain = 0
KFL1 190945Z 35005KT M03/M07 A3014 RMK A01 T10321071  RH  074%=      5-min Rain = 0
KFL1 190946Z 35005KT M03/M07 A3014 RMK A01 T10311070  RH  074%=      5-min Rain = 0
KFL1 190947Z 35005KT M03/M07 A3014 RMK A01 T10321072  RH  074%=      5-min Rain = 0
KFL1 190948Z 35005KT M03/M07 A3014 RMK A01 T10331072  RH  074%=      5-min Rain = 0
KFL1 190949Z 36004KT M04/M07 A3014 RMK A01 T10351073  RH  075%=      5-min Rain = 0
KFL1 190950Z 36004KT M03/M07 A3014 RMK A01 T10341071  RH  076%=      5-min Rain = 0
KFL1 190951Z 35004KT M03/M07 A3014 RMK A01 T10331070  RH  076%=      5-min Rain = 0
KFL1 190952Z 35004KT M04/M07 A3014 RMK A01 T10351072  RH  076%=      5-min Rain = 0
KFL1 190953Z 35005KT M04/M07 A3014 RMK A01 T10361072  RH  076%=      5-min Rain = 0
KFL1 190954Z 35004KT M04/M07 A3014 RMK A01 T10371072  RH  077%=      5-min Rain = 0
KFL1 190955Z 00004KT M04/M07 A3014 RMK A01 T10351070  RH  077%=      5-min Rain = 0
KFL1 190956Z 00004KT M03/M07 A3014 RMK A01 T10331069  RH  076%=      5-min Rain = 0
KFL1 190957Z 36004KT M03/M07 A3014 RMK A01 T10301068  RH  075%=      5-min Rain = 0
KFL1 190958Z 36004KT M03/M07 A3014 RMK A01 T10271068  RH  074%=      5-min Rain = 0
KFL1 190959Z 00004KT M03/M07 A3014 RMK A01 T10251068  RH  073%=      5-min Rain = 0
KFL1 191000Z 01005KT M03/M07 A3014 RMK A01 T10261070  RH  072%=      5-min Rain = 0
KFL1 191001Z 01006KT M03/M07 A3014 RMK A01 T10251069  RH  072%=      5-min Rain = 0
KFL1 191002Z 01006KT M03/M07 A3014 RMK A01 T10251071  RH  071%=      5-min Rain = 0
KFL1 191003Z 01006KT M02/M07 A3014 RMK A01 T10241070  RH  071%=      5-min Rain = 0
KFL1 191004Z 00005KT M03/M07 A3013 RMK A01 T10251071  RH  071%=      5-min Rain = 0
KFL1 191005Z 00005KT M03/M08 A3013 RMK A01 T10291075  RH  071%=      5-min Rain = 0
KFL1 191006Z 00004KT M03/M08 A3013 RMK A01 T10331077  RH  072%=      5-min Rain = 0
KFL1 191007Z 36004KT M04/M08 A3013 RMK A01 T10381078  RH  073%=      5-min Rain = 0
KFL1 191008Z 36004KT M04/M08 A3013 RMK A01 T10381076  RH  075%=      5-min Rain = 0
KFL1 191009Z 36004KT M04/M07 A3013 RMK A01 T10391074  RH  076%=      5-min Rain = 0
KFL1 191010Z 35004KT M04/M07 A3013 RMK A01 T10371072  RH  077%=      5-min Rain = 0
KFL1 191011Z 36004KT M04/M07 A3013 RMK A01 T10371073  RH  076%=      5-min Rain = 0
KFL1 191012Z 36004KT M04/M07 A3013 RMK A01 T10351071  RH  076%=      5-min Rain = 0
KFL1 191013Z 36004KT M03/M07 A3013 RMK A01 T10321068  RH  076%=      5-min Rain = 0
KFL1 191014Z 35004KT M03/M07 A3013 RMK A01 T10321070  RH  075%=      5-min Rain = 0
KFL1 191015Z 35004KT M03/M07 A3013 RMK A01 T10311070  RH  074%=      5-min Rain = 0
KFL1 191016Z 00004KT M03/M07 A3013 RMK A01 T10321071  RH  074%=      5-min Rain = 0
KFL1 191017Z 00004KT M03/M07 A3013 RMK A01 T10311071  RH  074%=      5-min Rain = 0
KFL1 191018Z 00004KT M03/M07 A3013 RMK A01 T10331073  RH  074%=      5-min Rain = 0
KFL1 191019Z 00004KT M04/M08 A3013 RMK A01 T10361075  RH  074%=      5-min Rain = 0
KFL1 191020Z 00004KT M04/M07 A3013 RMK A01 T10371074  RH  076%=      5-min Rain = 0
KFL1 191021Z 01004KT M04/M07 A3013 RMK A01 T10381073  RH  077%=      5-min Rain = 0
KFL1 191022Z 01004KT M04/M07 A3013 RMK A01 T10381072  RH  077%=      5-min Rain = 0
KFL1 191023Z 01005KT M04/M07 A3013 RMK A01 T10361070  RH  077%=      5-min Rain = 0
KFL1 191024Z 01004KT M04/M07 A3013 RMK A01 T10361071  RH  076%=      5-min Rain = 0
KFL1 191025Z 01004KT M03/M07 A3013 RMK A01 T10341071  RH  076%=      5-min Rain = 0
KFL1 191026Z 01003KT M03/M07 A3013 RMK A01 T10331071  RH  075%=      5-min Rain = 0
KFL1 191027Z 00003KT M03/M07 A3013 RMK A01 T10321072  RH  074%=      5-min Rain = 0
KFL1 191028Z 00003KT M03/M08 A3013 RMK A01 T10341075  RH  073%=      5-min Rain = 0
KFL1 191029Z 00003KT M04/M08 A3013 RMK A01 T10361076  RH  074%=      5-min Rain = 0
KFL1 191030Z 00002KT M04/M08 A3013 RMK A01 T10401078  RH  075%=      5-min Rain = 0
KFL1 191031Z 00002KT M04/M08 A3013 RMK A01 T10411078  RH  076%=      5-min Rain = 0
KFL1 191032Z 01003KT M04/M08 A3013 RMK A01 T10431078  RH  077%=      5-min Rain = 0
KFL1 191033Z 01003KT M04/M08 A3013 RMK A01 T10441078  RH  077%=      5-min Rain = 0
KFL1 191034Z 01003KT M04/M08 A3013 RMK A01 T10441077  RH  078%=      5-min Rain = 0
KFL1 191035Z 01003KT M04/M08 A3013 RMK A01 T10431076  RH  078%=      5-min Rain = 0
KFL1 191036Z 01003KT M05/M08 A3013 RMK A01 T10451077  RH  078%=      5-min Rain = 0
KFL1 191037Z 01003KT M05/M08 A3013 RMK A01 T10471078  RH  079%=      5-min Rain = 0
KFL1 191038Z 01004KT M05/M08 A3013 RMK A01 T10471078  RH  079%=      5-min Rain = 0
KFL1 191039Z 02004KT M05/M08 A3013 RMK A01 T10471077  RH  079%=      5-min Rain = 0
KFL1 191040Z 02004KT M05/M08 A3013 RMK A01 T10451076  RH  079%=      5-min Rain = 0
KFL1 191041Z 02004KT M05/M08 A3013 RMK A01 T10451076  RH  079%=      5-min Rain = 0
KFL1 191042Z 02004KT M05/M08 A3013 RMK A01 T10451076  RH  079%=      5-min Rain = 0
KFL1 191043Z 01004KT M04/M08 A3013 RMK A01 T10441076  RH  079%=      5-min Rain = 0
KFL1 191044Z 01004KT M04/M08 A3013 RMK A01 T10441077  RH  078%=      5-min Rain = 0
KFL1 191045Z 02004KT M05/M08 A3013 RMK A01 T10451078  RH  078%=      5-min Rain = 0
KFL1 191046Z 01004KT M05/M08 A3013 RMK A01 T10471079  RH  078%=      5-min Rain = 0
KFL1 191047Z 01003KT M05/M08 A3013 RMK A01 T10471078  RH  079%=      5-min Rain = 0
KFL1 191048Z 01003KT M05/M08 A3013 RMK A01 T10461076  RH  080%=      5-min Rain = 0
KFL1 191049Z 01004KT M05/M08 A3013 RMK A01 T10451075  RH  079%=      5-min Rain = 0
KFL1 191050Z 01004KT M04/M08 A3013 RMK A01 T10441075  RH  079%=      5-min Rain = 0
KFL1 191051Z 01004KT M04/M08 A3013 RMK A01 T10441076  RH  078%=      5-min Rain = 0
KFL1 191052Z 01003KT M04/M08 A3013 RMK A01 T10431075  RH  078%=      5-min Rain = 0
KFL1 191053Z 01003KT M05/M08 A3013 RMK A01 T10451076  RH  079%=      5-min Rain = 0
KFL1 191054Z 01003KT M04/M08 A3013 RMK A01 T10431075  RH  079%=      5-min Rain = 0
KFL1 191055Z 01003KT M05/M08 A3013 RMK A01 T10461077  RH  079%=      5-min Rain = 0
KFL1 191056Z 01003KT M05/M08 A3013 RMK A01 T10471078  RH  079%=      5-min Rain = 0
KFL1 191057Z 01003KT M05/M08 A3013 RMK A01 T10481078  RH  079%=      5-min Rain = 0
KFL1 191058Z 02003KT M05/M08 A3014 RMK A01 T10481077  RH  080%=      5-min Rain = 0
KFL1 191059Z 03004KT M04/M07 A3014 RMK A01 T10441072  RH  081%=      5-min Rain = 0
KFL1 191100Z 03003KT M04/M07 A3014 RMK A01 T10391069  RH  080%=      5-min Rain = 0
KFL1 191101Z 02003KT M04/M07 A3014 RMK A01 T10391072  RH  078%=      5-min Rain = 0
KFL1 191102Z 02004KT M04/M07 A3014 RMK A01 T10391072  RH  077%=      5-min Rain = 0
KFL1 191103Z 02003KT M04/M07 A3014 RMK A01 T10371073  RH  077%=      5-min Rain = 0
KFL1 191104Z 02003KT M04/M07 A3014 RMK A01 T10371073  RH  076%=      5-min Rain = 0
KFL1 191105Z 01002KT M04/M07 A3014 RMK A01 T10371073  RH  076%=      5-min Rain = 0
KFL1 191106Z 01002KT M04/M07 A3014 RMK A01 T10381074  RH  076%=      5-min Rain = 0
KFL1 191107Z 00002KT M04/M08 A3014 RMK A01 T10401075  RH  076%=      5-min Rain = 0
KFL1 191108Z 00002KT M04/M07 A3014 RMK A01 T10401074  RH  077%=      5-min Rain = 0
KFL1 191109Z 00003KT M04/M08 A3014 RMK A01 T10411075  RH  077%=      5-min Rain = 0
KFL1 191110Z 00003KT M04/M08 A3014 RMK A01 T10421075  RH  077%=      5-min Rain = 0
KFL1 191111Z 00003KT M04/M07 A3014 RMK A01 T10421074  RH  078%=      5-min Rain = 0
KFL1 191112Z 00003KT M04/M08 A3014 RMK A01 T10441075  RH  079%=      5-min Rain = 0
KFL1 191113Z 00003KT M04/M07 A3014 RMK A01 T10431073  RH  079%=      5-min Rain = 0
KFL1 191114Z 01003KT M04/M07 A3014 RMK A01 T10421072  RH  079%=      5-min Rain = 0
KFL1 191115Z 01004KT M04/M07 A3014 RMK A01 T10411071  RH  080%=      5-min Rain = 0
KFL1 191116Z 02005KT M04/M07 A3014 RMK A01 T10391069  RH  080%=      5-min Rain = 0
KFL1 191117Z 02005KT M04/M07 A3014 RMK A01 T10371069  RH  079%=      5-min Rain = 0
KFL1 191118Z 02005KT M04/M07 A3014 RMK A01 T10351067  RH  078%=      5-min Rain = 0
KFL1 191119Z 02005KT M03/M07 A3014 RMK A01 T10321066  RH  078%=      5-min Rain = 0
KFL1 191120Z 03005KT M03/M07 A3014 RMK A01 T10291066  RH  076%=      5-min Rain = 0
KFL1 191121Z 03005KT M03/M07 A3014 RMK A01 T10281067  RH  074%=      5-min Rain = 0
KFL1 191122Z 04005KT M03/M07 A3013 RMK A01 T10281068  RH  074%=      5-min Rain = 0
KFL1 191123Z 04006KT M03/M07 A3013 RMK A01 T10291068  RH  074%=      5-min Rain = 0
KFL1 191124Z 04006KT M03/M07 A3013 RMK A01 T10281067  RH  075%=      5-min Rain = 0
KFL1 191125Z 04006KT M02/M06 A3013 RMK A01 T10241063  RH  074%=      5-min Rain = 0
KFL1 191126Z 04006KT M02/M06 A3013 RMK A01 T10211063  RH  073%=      5-min Rain = 0
KFL1 191127Z 04006KT M02/M06 A3013 RMK A01 T10191063  RH  072%=      5-min Rain = 0
KFL1 191128Z 04006KT M02/M06 A3013 RMK A01 T10171064  RH  071%=      5-min Rain = 0
KFL1 191129Z 04007KT M02/M07 A3013 RMK A01 T10191067  RH  070%=      5-min Rain = 0
KFL1 191130Z 03006KT M02/M07 A3013 RMK A01 T10181066  RH  070%=      5-min Rain = 0
KFL1 191131Z 03006KT M02/M07 A3013 RMK A01 T10221071  RH  069%=      5-min Rain = 0
KFL1 191132Z 03006KT M03/M08 A3013 RMK A01 T10301075  RH  071%=      5-min Rain = 0
KFL1 191133Z 03006KT M03/M07 A3013 RMK A01 T10341074  RH  074%=      5-min Rain = 0
KFL1 191134Z 03007KT M04/M07 A3013 RMK A01 T10351073  RH  075%=      5-min Rain = 0
KFL1 191135Z 03006KT M03/M07 A3013 RMK A01 T10331068  RH  077%=      5-min Rain = 0
KFL1 191136Z 03006KT M03/M07 A3013 RMK A01 T10311067  RH  076%=      5-min Rain = 0
KFL1 191137Z 03006KT M03/M07 A3013 RMK A01 T10311068  RH  076%=      5-min Rain = 0
KFL1 191138Z 03007KT M03/M07 A3013 RMK A01 T10321069  RH  076%=      5-min Rain = 0
KFL1 191139Z 03006KT M03/M07 A3013 RMK A01 T10321068  RH  076%=      5-min Rain = 0
KFL1 191140Z 03006KT M03/M07 A3013 RMK A01 T10321068  RH  076%=      5-min Rain = 0
KFL1 191141Z 03006KT M03/M07 A3013 RMK A01 T10321068  RH  076%=      5-min Rain = 0
KFL1 191142Z 03006KT M03/M07 A3013 RMK A01 T10321068  RH  076%=      5-min Rain = 0
KFL1 191143Z 03006KT M03/M07 A3013 RMK A01 T10331068  RH  077%=      5-min Rain = 0
KFL1 191144Z 03006KT M03/M07 A3013 RMK A01 T10321067  RH  077%=      5-min Rain = 0
KFL1 191145Z 03006KT M03/M07 A3013 RMK A01 T10331069  RH  076%=      5-min Rain = 0
KFL1 191146Z 03006KT M03/M07 A3013 RMK A01 T10341070  RH  076%=      5-min Rain = 0
KFL1 191147Z 03005KT M04/M07 A3013 RMK A01 T10361071  RH  077%=      5-min Rain = 0
KFL1 191148Z 03005KT M04/M07 A3013 RMK A01 T10361070  RH  077%=      5-min Rain = 0
KFL1 191149Z 03005KT M04/M07 A3013 RMK A01 T10351069  RH  077%=      5-min Rain = 0
KFL1 191150Z 03005KT M03/M07 A3013 RMK A01 T10341068  RH  077%=      5-min Rain = 0
KFL1 191151Z 03005KT M03/M07 A3013 RMK A01 T10321066  RH  077%=      5-min Rain = 0
KFL1 191152Z 03005KT M03/M07 A3013 RMK A01 T10311066  RH  076%=      5-min Rain = 0
KFL1 191153Z 03005KT M03/M07 A3013 RMK A01 T10311067  RH  076%=      5-min Rain = 0
KFL1 191154Z 03005KT M03/M07 A3013 RMK A01 T10291067  RH  075%=      5-min Rain = 0
KFL1 191155Z 03005KT M03/M07 A3013 RMK A01 T10281068  RH  074%=      5-min Rain = 0
KFL1 191156Z 04005KT M03/M07 A3013 RMK A01 T10271068  RH  073%=      5-min Rain = 0
KFL1 191157Z 04006KT M03/M07 A3013 RMK A01 T10261070  RH  072%=      5-min Rain = 0
KFL1 191158Z 03007KT M02/M07 A3013 RMK A01 T10231068  RH  071%=      5-min Rain = 0
KFL1 191159Z 04007KT M02/M07 A3013 RMK A01 T10181066  RH  070%=      5-min Rain = 0
KFL1 191200Z 04008KT M02/M07 A3012 RMK A01 T10161067  RH  068%=      5-min Rain = 0
KFL1 191201Z 04008KT M01/M07 A3012 RMK A01 T10141067  RH  067%=      5-min Rain = 0
KFL1 191202Z 04007KT M01/M07 A3012 RMK A01 T10121067  RH  066%=      5-min Rain = 0
KFL1 191203Z 04008KT M01/M07 A3012 RMK A01 T10121069  RH  065%=      5-min Rain = 0
KFL1 191204Z 04008KT M01/M07 A3012 RMK A01 T10101069  RH  064%=      5-min Rain = 0
KFL1 191205Z 04008KT M01/M07 A3012 RMK A01 T10081069  RH  064%=      5-min Rain = 0
KFL1 191206Z 04007KT M01/M07 A3012 RMK A01 T10081070  RH  063%=      5-min Rain = 0
KFL1 191207Z 04007KT M01/M07 A3012 RMK A01 T10061070  RH  062%=      5-min Rain = 0
KFL1 191208Z 04008KT M01/M07 A3012 RMK A01 T10061070  RH  062%=      5-min Rain = 0
KFL1 191209Z 04008KT M01/M07 A3012 RMK A01 T10061071  RH  061%=      5-min Rain = 0
KFL1 191210Z 04008KT M00/M07 A3012 RMK A01 T10041070  RH  061%=      5-min Rain = 0
KFL1 191211Z 04007KT M01/M07 A3012 RMK A01 T10051072  RH  061%=      5-min Rain = 0
KFL1 191212Z 04007KT M01/M07 A3012 RMK A01 T10061073  RH  061%=      5-min Rain = 0
KFL1 191213Z 04008KT M01/M07 A3012 RMK A01 T10071073  RH  061%=      5-min Rain = 0
KFL1 191214Z 04008KT M01/M07 A3012 RMK A01 T10061072  RH  061%=      5-min Rain = 0
KFL1 191215Z 04008KT M01/M07 A3012 RMK A01 T10051072  RH  061%=      5-min Rain = 0
KFL1 191216Z 04008KT M01/M07 A3012 RMK A01 T10061073  RH  060%=      5-min Rain = 0
KFL1 191217Z 04009KT M01/M07 A3012 RMK A01 T10061072  RH  061%=      5-min Rain = 0
KFL1 191218Z 04009KT M01/M07 A3012 RMK A01 T10061072  RH  061%=      5-min Rain = 0
KFL1 191219Z 04010KT M00/M07 A3012 RMK A01 T10041071  RH  061%=      5-min Rain = 0
KFL1 191220Z 04009KT M00/M07 A3012 RMK A01 T10041071  RH  060%=      5-min Rain = 0
KFL1 191221Z 04009KT M00/M07 A3012 RMK A01 T10041071  RH  060%=      5-min Rain = 0
KFL1 191222Z 04010KT M00/M07 A3012 RMK A01 T10021070  RH  060%=      5-min Rain = 0
KFL1 191223Z 04009KT M00/M07 A3012 RMK A01 T10011070  RH  060%=      5-min Rain = 0
KFL1 191224Z 04009KT 00/M07 A3012 RMK A01 T00011069  RH  059%=      5-min Rain = 0
KFL1 191225Z 04009KT 01/M07 A3012 RMK A01 T00051065  RH  059%=      5-min Rain = 0
KFL1 191226Z 05010KT 01/M07 A3012 RMK A01 T00071066  RH  058%=      5-min Rain = 0
KFL1 191227Z 04009KT 01/M07 A3012 RMK A01 T00081065  RH  058%=      5-min Rain = 0
KFL1 191228Z 05009KT 01/M07 A3012 RMK A01 T00091065  RH  058%=      5-min Rain = 0
KFL1 191229Z 04008KT 01/M06 A3012 RMK A01 T00121063  RH  057%=      5-min Rain = 0
KFL1 191230Z 05008KT 01/M06 A3011 RMK A01 T00131064  RH  057%=      5-min Rain = 0
KFL1 191231Z 05008KT 01/M06 A3011 RMK A01 T00141064  RH  056%=      5-min Rain = 0
KFL1 191232Z 05007KT 02/M06 A3011 RMK A01 T00181060  RH  056%=      5-min Rain = 0
KFL1 191233Z 05007KT 02/M06 A3011 RMK A01 T00181062  RH  055%=      5-min Rain = 0
KFL1 191234Z 05007KT 02/M06 A3011 RMK A01 T00211060  RH  055%=      5-min Rain = 0
KFL1 191235Z 05006KT 02/M06 A3011 RMK A01 T00231059  RH  055%=      5-min Rain = 0
KFL1 191236Z 05007KT 02/M06 A3011 RMK A01 T00231060  RH  054%=      5-min Rain = 0
KFL1 191237Z 04007KT 02/M06 A3011 RMK A01 T00241060  RH  054%=      5-min Rain = 0
KFL1 191238Z 04007KT 02/M06 A3011 RMK A01 T00231061  RH  054%=      5-min Rain = 0
KFL1 191239Z 04007KT 02/M06 A3011 RMK A01 T00231061  RH  054%=      5-min Rain = 0
KFL1 191240Z 04007KT 02/M06 A3011 RMK A01 T00241060  RH  054%=      5-min Rain = 0
KFL1 191241Z 04008KT 02/M06 A3011 RMK A01 T00241061  RH  054%=      5-min Rain = 0
KFL1 191242Z 04008KT 02/M06 A3011 RMK A01 T00231061  RH  054%=      5-min Rain = 0
KFL1 191243Z 04008KT 02/M06 A3011 RMK A01 T00221062  RH  054%=      5-min Rain = 0
KFL1 191244Z 05008KT 02/M06 A3011 RMK A01 T00211062  RH  054%=      5-min Rain = 0
KFL1 191245Z 04008KT 02/M06 A3011 RMK A01 T00201062  RH  055%=      5-min Rain = 0
KFL1 191246Z 04008KT 02/M06 A3011 RMK A01 T00201062  RH  055%=      5-min Rain = 0
KFL1 191247Z 04009KT 02/M06 A3011 RMK A01 T00181063  RH  055%=      5-min Rain = 0
KFL1 191248Z 05008KT 02/M06 A3011 RMK A01 T00211061  RH  055%=      5-min Rain = 0
KFL1 191249Z 04010KT 02/M06 A3011 RMK A01 T00201062  RH  055%=      5-min Rain = 0
KFL1 191250Z 04008KT 02/M06 A3011 RMK A01 T00201062  RH  054%=      5-min Rain = 0
KFL1 191251Z 04008KT 02/M06 A3011 RMK A01 T00211062  RH  054%=      5-min Rain = 0
KFL1 191252Z 04008KT 02/M06 A3011 RMK A01 T00231060  RH  054%=      5-min Rain = 0
KFL1 191253Z 05008KT 02/M06 A3011 RMK A01 T00241061  RH  054%=      5-min Rain = 0
KFL1 191254Z 05009KT 02/M06 A3011 RMK A01 T00241061  RH  053%=      5-min Rain = 0
KFL1 191255Z 05009KT 02/M06 A3011 RMK A01 T00241061  RH  053%=      5-min Rain = 0
KFL1 191256Z 04009KT 02/M06 A3011 RMK A01 T00231062  RH  053%=      5-min Rain = 0
KFL1 191257Z 04008KT 02/M06 A3011 RMK A01 T00221063  RH  054%=      5-min Rain = 0
KFL1 191258Z 04009KT 02/M06 A3011 RMK A01 T00221062  RH  054%=      5-min Rain = 0
KFL1 191259Z 04008KT 02/M06 A3011 RMK A01 T00211063  RH  054%=      5-min Rain = 0
KFL1 191300Z 04008KT 02/M06 A3011 RMK A01 T00231061  RH  054%=      5-min Rain = 0
KFL1 191301Z 04008KT 02/M06 A3011 RMK A01 T00241062  RH  053%=      5-min Rain = 0
KFL1 191302Z 04008KT 03/M06 A3011 RMK A01 T00261061  RH  053%=      5-min Rain = 0
KFL1 191303Z 04008KT 03/M06 A3011 RMK A01 T00261061  RH  052%=      5-min Rain = 0
KFL1 191304Z 04008KT 03/M06 A3011 RMK A01 T00271060  RH  053%=      5-min Rain = 0
KFL1 191305Z 04007KT 03/M06 A3011 RMK A01 T00271061  RH  052%=      5-min Rain = 0
KFL1 191306Z 04007KT 03/M06 A3011 RMK A01 T00281060  RH  052%=      5-min Rain = 0
KFL1 191307Z 04007KT 03/M06 A3011 RMK A01 T00291060  RH  052%=      5-min Rain = 0
KFL1 191308Z 04007KT 03/M06 A3011 RMK A01 T00301060  RH  052%=      5-min Rain = 0
KFL1 191309Z 05007KT 03/M06 A3011 RMK A01 T00321059  RH  051%=      5-min Rain = 0
KFL1 191310Z 04008KT 03/M06 A3011 RMK A01 T00311060  RH  051%=      5-min Rain = 0
KFL1 191311Z 04007KT 03/M06 A3011 RMK A01 T00331058  RH  051%=      5-min Rain = 0
KFL1 191312Z 04007KT 03/M06 A3011 RMK A01 T00331059  RH  051%=      5-min Rain = 0
KFL1 191313Z 04007KT 03/M06 A3011 RMK A01 T00341058  RH  051%=      5-min Rain = 0
KFL1 191314Z 04008KT 03/M06 A3011 RMK A01 T00341059  RH  051%=      5-min Rain = 0
KFL1 191315Z 04008KT 03/M06 A3011 RMK A01 T00341058  RH  051%=      5-min Rain = 0
KFL1 191316Z 04007KT 03/M06 A3011 RMK A01 T00341059  RH  051%=      5-min Rain = 0
KFL1 191317Z 04008KT 03/M06 A3011 RMK A01 T00341058  RH  051%=      5-min Rain = 0
KFL1 191318Z 04008KT 04/M06 A3011 RMK A01 T00351058  RH  051%=      5-min Rain = 0
KFL1 191319Z 04008KT 03/M06 A3011 RMK A01 T00331059  RH  051%=      5-min Rain = 0
KFL1 191320Z 04008KT 03/M06 A3011 RMK A01 T00321060  RH  051%=      5-min Rain = 0
KFL1 191321Z 04008KT 03/M06 A3011 RMK A01 T00301060  RH  051%=      5-min Rain = 0
KFL1 191322Z 04008KT 03/M06 A3011 RMK A01 T00301060  RH  052%=      5-min Rain = 0
KFL1 191323Z 04008KT 03/M06 A3011 RMK A01 T00301061  RH  051%=      5-min Rain = 0
KFL1 191324Z 05008KT 03/M06 A3011 RMK A01 T00301061  RH  051%=      5-min Rain = 0
KFL1 191325Z 05008KT 03/M06 A3011 RMK A01 T00311060  RH  051%=      5-min Rain = 0
KFL1 191326Z 04008KT 03/M06 A3011 RMK A01 T00301062  RH  051%=      5-min Rain = 0
KFL1 191327Z 04008KT 03/M06 A3011 RMK A01 T00311061  RH  051%=      5-min Rain = 0
KFL1 191328Z 04007KT 03/M06 A3011 RMK A01 T00301063  RH  051%=      5-min Rain = 0
KFL1 191329Z 04008KT 03/M06 A3011 RMK A01 T00301063  RH  051%=      5-min Rain = 0
KFL1 191330Z 04008KT 03/M06 A3011 RMK A01 T00301062  RH  051%=      5-min Rain = 0
KFL1 191331Z 04008KT 03/M06 A3011 RMK A01 T00291064  RH  050%=      5-min Rain = 0
KFL1 191332Z 04007KT 03/M06 A3011 RMK A01 T00301064  RH  050%=      5-min Rain = 0
KFL1 191333Z 05008KT 03/M07 A3011 RMK A01 T00301065  RH  050%=      5-min Rain = 0
KFL1 191334Z 05007KT 03/M07 A3011 RMK A01 T00311065  RH  049%=      5-min Rain = 0
KFL1 191335Z 04008KT 03/M06 A3011 RMK A01 T00321064  RH  049%=      5-min Rain = 0
KFL1 191336Z 04007KT 03/M07 A3011 RMK A01 T00311065  RH  049%=      5-min Rain = 0
KFL1 191337Z 04007KT 03/M07 A3011 RMK A01 T00311066  RH  049%=      5-min Rain = 0
KFL1 191338Z 05008KT 03/M07 A3011 RMK A01 T00311066  RH  049%=      5-min Rain = 0
KFL1 191339Z 05007KT 03/M07 A3011 RMK A01 T00311066  RH  049%=      5-min Rain = 0
KFL1 191340Z 05007KT 03/M07 A3011 RMK A01 T00321066  RH  049%=      5-min Rain = 0
KFL1 191341Z 05007KT 03/M07 A3011 RMK A01 T00311067  RH  049%=      5-min Rain = 0
KFL1 191342Z 05007KT 03/M07 A3011 RMK A01 T00311068  RH  048%=      5-min Rain = 0
KFL1 191343Z 04007KT 03/M07 A3011 RMK A01 T00301068  RH  048%=      5-min Rain = 0
KFL1 191344Z 05007KT 03/M07 A3011 RMK A01 T00321067  RH  048%=      5-min Rain = 0
KFL1 191345Z 05007KT 03/M07 A3011 RMK A01 T00311068  RH  048%=      5-min Rain = 0
KFL1 191346Z 05006KT 03/M07 A3011 RMK A01 T00301068  RH  048%=      5-min Rain = 0
KFL1 191347Z 05008KT 03/M07 A3011 RMK A01 T00301068  RH  049%=      5-min Rain = 0
KFL1 191348Z 05008KT 03/M07 A3011 RMK A01 T00291069  RH  049%=      5-min Rain = 0
KFL1 191349Z 04007KT 03/M07 A3011 RMK A01 T00291069  RH  048%=      5-min Rain = 0
KFL1 191350Z 05007KT 03/M07 A3011 RMK A01 T00301069  RH  048%=      5-min Rain = 0
KFL1 191351Z 05006KT 03/M07 A3011 RMK A01 T00301069  RH  048%=      5-min Rain = 0
KFL1 191352Z 05007KT 03/M07 A3011 RMK A01 T00291069  RH  049%=      5-min Rain = 0
KFL1 191353Z 05007KT 03/M07 A3011 RMK A01 T00271069  RH  049%=      5-min Rain = 0
KFL1 191354Z 04007KT 03/M07 A3011 RMK A01 T00271069  RH  049%=      5-min Rain = 0
KFL1 191355Z 04007KT 03/M07 A3011 RMK A01 T00281070  RH  049%=      5-min Rain = 0
KFL1 191356Z 04007KT 03/M07 A3011 RMK A01 T00301069  RH  048%=      5-min Rain = 0
KFL1 191357Z 04007KT 03/M07 A3011 RMK A01 T00321068  RH  048%=      5-min Rain = 0
KFL1 191358Z 04007KT 03/M07 A3011 RMK A01 T00321069  RH  048%=      5-min Rain = 0
KFL1 191359Z 05007KT 03/M07 A3011 RMK A01 T00321070  RH  047%=      5-min Rain = 0
KFL1 191400Z 04007KT 03/M07 A3011 RMK A01 T00331069  RH  047%=      5-min Rain = 0
KFL1 191401Z 03006KT 03/M07 A3011 RMK A01 T00341070  RH  047%=      5-min Rain = 0
KFL1 191402Z 04005KT 03/M07 A3011 RMK A01 T00341070  RH  046%=      5-min Rain = 0
KFL1 191403Z 04005KT 04/M07 A3011 RMK A01 T00351070  RH  046%=      5-min Rain = 0
KFL1 191404Z 04006KT 04/M07 A3011 RMK A01 T00351069  RH  046%=      5-min Rain = 0
KFL1 191405Z 04007KT 04/M07 A3011 RMK A01 T00361069  RH  046%=      5-min Rain = 0
KFL1 191406Z 03006KT 04/M07 A3011 RMK A01 T00371068  RH  046%=      5-min Rain = 0
KFL1 191407Z 04005KT 04/M07 A3011 RMK A01 T00361070  RH  046%=      5-min Rain = 0
KFL1 191408Z 04006KT 04/M07 A3011 RMK A01 T00361070  RH  046%=      5-min Rain = 0
KFL1 191409Z 04006KT 04/M07 A3011 RMK A01 T00351070  RH  046%=      5-min Rain = 0
KFL1 191410Z 04007KT 03/M07 A3011 RMK A01 T00341070  RH  047%=      5-min Rain = 0
KFL1 191411Z 04007KT 04/M07 A3011 RMK A01 T00351069  RH  047%=      5-min Rain = 0
KFL1 191412Z 04006KT 04/M07 A3011 RMK A01 T00351069  RH  047%=      5-min Rain = 0
KFL1 191413Z 05007KT 04/M07 A3011 RMK A01 T00361068  RH  046%=      5-min Rain = 0
KFL1 191414Z 04008KT 04/M07 A3011 RMK A01 T00381067  RH  046%=      5-min Rain = 0
KFL1 191415Z 04007KT 04/M07 A3011 RMK A01 T00371067  RH  046%=      5-min Rain = 0
KFL1 191416Z 04006KT 04/M07 A3011 RMK A01 T00361068  RH  047%=      5-min Rain = 0
KFL1 191417Z 04006KT 04/M07 A3011 RMK A01 T00371066  RH  047%=      5-min Rain = 0
KFL1 191418Z 04008KT 04/M07 A3011 RMK A01 T00351067  RH  047%=      5-min Rain = 0
KFL1 191419Z 04006KT 03/M07 A3011 RMK A01 T00341067  RH  048%=      5-min Rain = 0
KFL1 191420Z 04006KT 03/M07 A3011 RMK A01 T00341065  RH  048%=      5-min Rain = 0
KFL1 191421Z 04006KT 03/M07 A3011 RMK A01 T00331065  RH  049%=      5-min Rain = 0
KFL1 191422Z 04007KT 03/M06 A3011 RMK A01 T00311064  RH  050%=      5-min Rain = 0
KFL1 191423Z 04007KT 03/M07 A3011 RMK A01 T00251066  RH  051%=      5-min Rain = 0
KFL1 191424Z 04006KT 02/M07 A3011 RMK A01 T00231065  RH  052%=      5-min Rain = 0
KFL1 191425Z 04007KT 02/M07 A3011 RMK A01 T00211066  RH  053%=      5-min Rain = 0
KFL1 191426Z 03007KT 02/M07 A3011 RMK A01 T00191066  RH  053%=      5-min Rain = 0
KFL1 191427Z 04008KT 02/M07 A3011 RMK A01 T00181066  RH  054%=      5-min Rain = 0
KFL1 191428Z 04007KT 02/M07 A3011 RMK A01 T00171066  RH  054%=      5-min Rain = 0
KFL1 191429Z 04008KT 02/M06 A3011 RMK A01 T00191064  RH  054%=      5-min Rain = 0
KFL1 191430Z 04007KT 02/M07 A3011 RMK A01 T00171066  RH  054%=      5-min Rain = 0
KFL1 191431Z 04007KT 02/M07 A3011 RMK A01 T00191065  RH  054%=      5-min Rain = 0
KFL1 191432Z 04008KT 02/M06 A3011 RMK A01 T00231062  RH  053%=      5-min Rain = 0
KFL1 191433Z 04008KT 02/M06 A3011 RMK A01 T00231063  RH  053%=      5-min Rain = 0
KFL1 191434Z 04008KT 02/M06 A3011 RMK A01 T00241062  RH  053%=      5-min Rain = 0
KFL1 191435Z 04008KT 03/M06 A3011 RMK A01 T00251061  RH  053%=      5-min Rain = 0
KFL1 191436Z 04009KT 03/M06 A3011 RMK A01 T00251061  RH  053%=      5-min Rain = 0
KFL1 191437Z 04009KT 03/M06 A3011 RMK A01 T00251061  RH  053%=      5-min Rain = 0
KFL1 191438Z 04007KT 02/M06 A3011 RMK A01 T00241063  RH  053%=      5-min Rain = 0
KFL1 191439Z 04009KT 02/M06 A3011 RMK A01 T00241062  RH  053%=      5-min Rain = 0
KFL1 191440Z 05008KT 02/M06 A3011 RMK A01 T00231063  RH  053%=      5-min Rain = 0
KFL1 191441Z 04008KT 02/M06 A3011 RMK A01 T00221064  RH  053%=      5-min Rain = 0
KFL1 191442Z 04008KT 02/M06 A3011 RMK A01 T00231064  RH  053%=      5-min Rain = 0
KFL1 191443Z 04008KT 02/M06 A3011 RMK A01 T00241062  RH  053%=      5-min Rain = 0
KFL1 191444Z 04007KT 02/M06 A3011 RMK A01 T00231063  RH  053%=      5-min Rain = 0
KFL1 191445Z 04008KT 02/M06 A3011 RMK A01 T00221064  RH  053%=      5-min Rain = 0
KFL1 191446Z 04008KT 02/M06 A3011 RMK A01 T00211064  RH  053%=      5-min Rain = 0
KFL1 191447Z 04009KT 02/M06 A3011 RMK A01 T00221064  RH  053%=      5-min Rain = 0
KFL1 191448Z 05008KT 02/M06 A3011 RMK A01 T00221064  RH  053%=      5-min Rain = 0
KFL1 191449Z 04008KT 02/M06 A3011 RMK A01 T00231064  RH  053%=      5-min Rain = 0
KFL1 191450Z 04008KT 02/M07 A3011 RMK A01 T00221065  RH  053%=      5-min Rain = 0
KFL1 191451Z 04007KT 02/M06 A3011 RMK A01 T00231064  RH  053%=      5-min Rain = 0
KFL1 191452Z 05008KT 02/M06 A3011 RMK A01 T00241063  RH  053%=      5-min Rain = 0
KFL1 191453Z 05006KT 02/M06 A3011 RMK A01 T00241063  RH  053%=      5-min Rain = 0
KFL1 191454Z 05007KT 02/M06 A3011 RMK A01 T00231063  RH  053%=      5-min Rain = 0
KFL1 191455Z 05007KT 02/M06 A3011 RMK A01 T00231063  RH  053%=      5-min Rain = 0
KFL1 191456Z 04007KT 03/M06 A3011 RMK A01 T00251062  RH  053%=      5-min Rain = 0
KFL1 191457Z 04008KT 02/M06 A3011 RMK A01 T00241063  RH  053%=      5-min Rain = 0
KFL1 191458Z 04008KT 03/M06 A3011 RMK A01 T00261062  RH  052%=      5-min Rain = 0
KFL1 191459Z 05008KT 03/M06 A3011 RMK A01 T00261063  RH  052%=      5-min Rain = 0
KFL1 191500Z 04008KT 03/M06 A3011 RMK A01 T00281062  RH  051%=      5-min Rain = 0
KFL1 191501Z 04008KT 03/M06 A3011 RMK A01 T00301062  RH  051%=      5-min Rain = 0
KFL1 191502Z 04007KT 03/M06 A3011 RMK A01 T00311061  RH  051%=      5-min Rain = 0
KFL1 191503Z 05007KT 03/M06 A3011 RMK A01 T00311062  RH  051%=      5-min Rain = 0
KFL1 191504Z 05007KT 03/M06 A3011 RMK A01 T00331060  RH  050%=      5-min Rain = 0
KFL1 191505Z 05006KT 04/M06 A3011 RMK A01 T00351060  RH  050%=      5-min Rain = 0
KFL1 191506Z 04008KT 04/M06 A3011 RMK A01 T00351060  RH  050%=      5-min Rain = 0
KFL1 191507Z 04006KT 04/M06 A3011 RMK A01 T00371059  RH  049%=      5-min Rain = 0
KFL1 191508Z 04006KT 04/M06 A3011 RMK A01 T00391059  RH  049%=      5-min Rain = 0
KFL1 191509Z 05006KT 04/M06 A3011 RMK A01 T00401060  RH  048%=      5-min Rain = 0
KFL1 191510Z 05006KT 04/M06 A3011 RMK A01 T00431058  RH  048%=      5-min Rain = 0
KFL1 191511Z 05006KT 05/M06 A3011 RMK A01 T00461057  RH  047%=      5-min Rain = 0
KFL1 191512Z 05005KT 05/M06 A3011 RMK A01 T00471058  RH  046%=      5-min Rain = 0
KFL1 191513Z 06005KT 05/M06 A3011 RMK A01 T00501058  RH  045%=      5-min Rain = 0
KFL1 191514Z 06004KT 05/M06 A3011 RMK A01 T00531058  RH  045%=      5-min Rain = 0
KFL1 191515Z 05003KT 06/M06 A3011 RMK A01 T00551057  RH  044%=      5-min Rain = 0
KFL1 191516Z 07006KT 06/M06 A3011 RMK A01 T00561058  RH  044%=      5-min Rain = 0
KFL1 191517Z 06006KT 06/M06 A3011 RMK A01 T00601056  RH  043%=      5-min Rain = 0
KFL1 191518Z 07005KT 06/M06 A3011 RMK A01 T00611057  RH  043%=      5-min Rain = 0
KFL1 191519Z 06006KT 06/M06 A3011 RMK A01 T00621059  RH  041%=      5-min Rain = 0
KFL1 191520Z 07005KT 06/M06 A3011 RMK A01 T00641060  RH  041%=      5-min Rain = 0
KFL1 191521Z 07005KT 06/M06 A3011 RMK A01 T00631060  RH  041%=      5-min Rain = 0
KFL1 191522Z 07004KT 07/M06 A3011 RMK A01 T00661058  RH  041%=      5-min Rain = 0
KFL1 191523Z 07003KT 07/M06 A3011 RMK A01 T00671058  RH  041%=      5-min Rain = 0
KFL1 191524Z 05004KT 07/M06 A3011 RMK A01 T00691059  RH  040%=      5-min Rain = 0
KFL1 191525Z 06004KT 07/M06 A3011 RMK A01 T00701061  RH  039%=      5-min Rain = 0
KFL1 191526Z 05004KT 07/M06 A301 RMK A01 T00711062  RH  038%=      5-min Rain = 0
KFL1 191527Z 05005KT 07/M06 A301 RMK A01 T00711060  RH  039%=      5-min Rain = 0
KFL1 191528Z 06005KT 07/M06 A301 RMK A01 T00721058  RH  039%=      5-min Rain = 0
KFL1 191529Z 06004KT 07/M06 A301 RMK A01 T00731057  RH  039%=      5-min Rain = 0
KFL1 191530Z 05005KT 07/M06 A301 RMK A01 T00721058  RH  039%=      5-min Rain = 0
KFL1 191531Z 05004KT 07/M06 A301 RMK A01 T00741056  RH  039%=      5-min Rain = 0
KFL1 191532Z 07003KT 08/M06 A301 RMK A01 T00761055  RH  039%=      5-min Rain = 0
KFL1 191533Z 06003KT 08/M05 A301 RMK A01 T00781054  RH  039%=      5-min Rain = 0
KFL1 191534Z 07005KT 08/M05 A301 RMK A01 T00801054  RH  038%=      5-min Rain = 0
KFL1 191535Z 06004KT 08/M06 A301 RMK A01 T00801056  RH  038%=      5-min Rain = 0
KFL1 191536Z 06005KT 08/M06 A301 RMK A01 T00801057  RH  037%=      5-min Rain = 0
KFL1 191537Z 07005KT 08/M06 A301 RMK A01 T00781059  RH  037%=      5-min Rain = 0
KFL1 191538Z 07006KT 08/M05 A301 RMK A01 T00791054  RH  038%=      5-min Rain = 0
KFL1 191539Z 08006KT 08/M05 A301 RMK A01 T00811052  RH  038%=      5-min Rain = 0
KFL1 191540Z 08004KT 08/M06 A301 RMK A01 T00841057  RH  036%=      5-min Rain = 0
KFL1 191541Z 07004KT 09/M06 A301 RMK A01 T00851058  RH  036%=      5-min Rain = 0
KFL1 191542Z 07006KT 09/M06 A301 RMK A01 T00881056  RH  036%=      5-min Rain = 0
KFL1 191543Z 08005KT 09/M06 A301 RMK A01 T00901056  RH  035%=      5-min Rain = 0
KFL1 191544Z 08005KT 09/M06 A301 RMK A01 T00871058  RH  035%=      5-min Rain = 0
KFL1 191545Z 08005KT 09/M06 A301 RMK A01 T00871058  RH  035%=      5-min Rain = 0
KFL1 191546Z 08007KT 09/M06 A301 RMK A01 T00891059  RH  035%=      5-min Rain = 0
KFL1 191547Z 08007KT 09/M06 A301 RMK A01 T00901059  RH  035%=      5-min Rain = 0
KFL1 191548Z 07006KT 09/M06 A301 RMK A01 T00891060  RH  034%=      5-min Rain = 0
KFL1 191549Z 07007KT 09/M06 A301 RMK A01 T00891060  RH  034%=      5-min Rain = 0
KFL1 191550Z 07005KT 09/M06 A301 RMK A01 T00891060  RH  034%=      5-min Rain = 0
KFL1 191551Z 07006KT 09/M06 A301 RMK A01 T00911057  RH  035%=      5-min Rain = 0
KFL1 191552Z 07006KT 09/M06 A301 RMK A01 T00931055  RH  035%=      5-min Rain = 0
KFL1 191553Z 07007KT 09/M06 A301 RMK A01 T00931055  RH  035%=      5-min Rain = 0
KFL1 191554Z 07005KT 09/M06 A301 RMK A01 T00941055  RH  034%=      5-min Rain = 0
KFL1 191555Z 07005KT 10/M06 A301 RMK A01 T00961055  RH  034%=      5-min Rain = 0
KFL1 191556Z 07006KT 10/M06 A3011 RMK A01 T00961057  RH  034%=      5-min Rain = 0
KFL1 191557Z 07006KT 10/M06 A301 RMK A01 T00951059  RH  033%=      5-min Rain = 0
KFL1 191558Z 08007KT 10/M06 A301 RMK A01 T00951058  RH  033%=      5-min Rain = 0
KFL1 191559Z 08008KT 10/M06 A3011 RMK A01 T00981055  RH  033%=      5-min Rain = 0
KFL1 191600Z 07006KT 10/M06 A3011 RMK A01 T00981057  RH  033%=      5-min Rain = 0
KFL1 191601Z 08007KT 10/M06 A3011 RMK A01 T00991057  RH  033%=      5-min Rain = 0
KFL1 191602Z 08010KT 10/M06 A3011 RMK A01 T00991059  RH  032%=      5-min Rain = 0
KFL1 191603Z 07010KT 10/M06 A3011 RMK A01 T01001057  RH  033%=      5-min Rain = 0
KFL1 191604Z 08010KT 10/M05 A3011 RMK A01 T01011054  RH  033%=      5-min Rain = 0
KFL1 191605Z 07007KT 10/M06 A3011 RMK A01 T01021057  RH  032%=      5-min Rain = 0
KFL1 191606Z 08009KT 10/M06 A3011 RMK A01 T01011060  RH  032%=      5-min Rain = 0
KFL1 191607Z 09007KT 10/M06 A3011 RMK A01 T01011057  RH  032%=      5-min Rain = 0
KFL1 191608Z 08006KT 10/M05 A3011 RMK A01 T01041054  RH  033%=      5-min Rain = 0
KFL1 191609Z 09005KT 11/M06 A3011 RMK A01 T01061059  RH  031%=      5-min Rain = 0
KFL1 191610Z 08005KT 11/M06 A3011 RMK A01 T01051060  RH  031%=      5-min Rain = 0
KFL1 191611Z 08006KT 11/M06 A3011 RMK A01 T01051060  RH  031%=      5-min Rain = 0
KFL1 191612Z 08008KT 11/M06 A3011 RMK A01 T01051060  RH  031%=      5-min Rain = 0
KFL1 191613Z 09010KT 11/M06 A3011 RMK A01 T01051059  RH  031%=      5-min Rain = 0
KFL1 191614Z 10007KT 11/M06 A3011 RMK A01 T01051061  RH  031%=      5-min Rain = 0
KFL1 191615Z 09007KT 10/M06 A3011 RMK A01 T01041060  RH  031%=      5-min Rain = 0
KFL1 191616Z 09008KT 11/M06 A3011 RMK A01 T01051059  RH  031%=      5-min Rain = 0
KFL1 191617Z 08010KT 11/M06 A3011 RMK A01 T01051059  RH  031%=      5-min Rain = 0
KFL1 191618Z 09008KT 11/M06 A3011 RMK A01 T01061059  RH  031%=      5-min Rain = 0
KFL1 191619Z 08007KT 11/M06 A3011 RMK A01 T01061060  RH  031%=      5-min Rain = 0
KFL1 191620Z 10007KT 11/M06 A3011 RMK A01 T01061058  RH  031%=      5-min Rain = 0
KFL1 191621Z 10004KT 11/M06 A3011 RMK A01 T01081057  RH  031%=      5-min Rain = 0
KFL1 191622Z 10007KT 11/M06 A3011 RMK A01 T01081058  RH  031%=      5-min Rain = 0
KFL1 191623Z 11007KT 11/M06 A3011 RMK A01 T01081059  RH  030%=      5-min Rain = 0
KFL1 191624Z 10007KT 11/M06 A3011 RMK A01 T01071061  RH  030%=      5-min Rain = 0
KFL1 191625Z 11008KT 11/M06 A3011 RMK A01 T01061059  RH  031%=      5-min Rain = 0
KFL1 191626Z 11006KT 10/M06 A3011 RMK A01 T01041059  RH  031%=      5-min Rain = 0
KFL1 191627Z 10009KT 10/M06 A3011 RMK A01 T01021058  RH  032%=      5-min Rain = 0
KFL1 191628Z 09009KT 10/M06 A3011 RMK A01 T01021058  RH  032%=      5-min Rain = 0
KFL1 191629Z 10008KT 10/M06 A3011 RMK A01 T01031058  RH  032%=      5-min Rain = 0
KFL1 191630Z 09008KT 10/M06 A3011 RMK A01 T01031058  RH  032%=      5-min Rain = 0
KFL1 191631Z 09006KT 10/M06 A3011 RMK A01 T01011058  RH  032%=      5-min Rain = 0
KFL1 191632Z 10006KT 10/M06 A3011 RMK A01 T01021058  RH  032%=      5-min Rain = 0
KFL1 191633Z 10005KT 10/M06 A3011 RMK A01 T01011058  RH  032%=      5-min Rain = 0
KFL1 191634Z 10006KT 10/M06 A3011 RMK A01 T01021057  RH  032%=      5-min Rain = 0
KFL1 191635Z 10006KT 11/M06 A3011 RMK A01 T01051057  RH  032%=      5-min Rain = 0
KFL1 191636Z 11007KT 11/M06 A3011 RMK A01 T01061057  RH  031%=      5-min Rain = 0
KFL1 191637Z 11007KT 11/M06 A3011 RMK A01 T01051057  RH  031%=      5-min Rain = 0
KFL1 191638Z 10005KT 11/M06 A3011 RMK A01 T01051059  RH  031%=      5-min Rain = 0
KFL1 191639Z 11004KT 10/M06 A3011 RMK A01 T01041059  RH  031%=      5-min Rain = 0
KFL1 191640Z 09004KT 11/M06 A3011 RMK A01 T01071057  RH  031%=      5-min Rain = 0
KFL1 191641Z 08006KT 11/M06 A3011 RMK A01 T01071059  RH  031%=      5-min Rain = 0
KFL1 191642Z 08005KT 11/M06 A3011 RMK A01 T01061057  RH  031%=      5-min Rain = 0
KFL1 191643Z 09005KT 11/M05 A3011 RMK A01 T01091053  RH  032%=      5-min Rain = 0
KFL1 191644Z 10006KT 11/M05 A3011 RMK A01 T01101053  RH  031%=      5-min Rain = 0
KFL1 191645Z 09005KT 11/M06 A3011 RMK A01 T01121056  RH  030%=      5-min Rain = 0
KFL1 191646Z 09005KT 11/M06 A3011 RMK A01 T01111058  RH  030%=      5-min Rain = 0
KFL1 191647Z 10007KT 11/M06 A3011 RMK A01 T01111055  RH  031%=      5-min Rain = 0
KFL1 191648Z 09006KT 11/M06 A3011 RMK A01 T01091055  RH  031%=      5-min Rain = 0
KFL1 191649Z 10006KT 11/M06 A3011 RMK A01 T01071058  RH  031%=      5-min Rain = 0
KFL1 191650Z 12004KT 11/M06 A3011 RMK A01 T01061057  RH  031%=      5-min Rain = 0
KFL1 191651Z 10006KT 11/M06 A3011 RMK A01 T01061059  RH  031%=      5-min Rain = 0
KFL1 191652Z 10005KT 11/M06 A3011 RMK A01 T01051058  RH  031%=      5-min Rain = 0
KFL1 191653Z 10006KT 10/M06 A3011 RMK A01 T01041057  RH  032%=      5-min Rain = 0
KFL1 191654Z 09005KT 10/M06 A3011 RMK A01 T01031058  RH  032%=      5-min Rain = 0
KFL1 191655Z 09005KT 11/M06 A3011 RMK A01 T01051056  RH  032%=      5-min Rain = 0
KFL1 191656Z 08006KT 11/M06 A3011 RMK A01 T01051056  RH  032%=      5-min Rain = 0
KFL1 191657Z 09005KT 11/M05 A3011 RMK A01 T01061054  RH  032%=      5-min Rain = 0
KFL1 191658Z 07005KT 11/M06 A3011 RMK A01 T01071057  RH  031%=      5-min Rain = 0
KFL1 191659Z 06005KT 11/M06 A3011 RMK A01 T01071056  RH  031%=      5-min Rain = 0
KFL1 191700Z 07005KT 11/M06 A3011 RMK A01 T01091055  RH  031%=      5-min Rain = 0
KFL1 191701Z 08005KT 11/M06 A3011 RMK A01 T01081055  RH  031%=      5-min Rain = 0
KFL1 191702Z 09005KT 11/M06 A3011 RMK A01 T01081056  RH  031%=      5-min Rain = 0
KFL1 191703Z 09006KT 11/M05 A3011 RMK A01 T01091054  RH  031%=      5-min Rain = 0
KFL1 191704Z 10004KT 11/M06 A3011 RMK A01 T01101055  RH  031%=      5-min Rain = 0
KFL1 191705Z 11004KT 11/M06 A3011 RMK A01 T01111056  RH  031%=      5-min Rain = 0
KFL1 191706Z 10004KT 11/M06 A3011 RMK A01 T01101057  RH  030%=      5-min Rain = 0
KFL1 191707Z 09004KT 11/M06 A3012 RMK A01 T01081058  RH  031%=      5-min Rain = 0
KFL1 191708Z 08004KT 11/M06 A3012 RMK A01 T01091056  RH  031%=      5-min Rain = 0
KFL1 191709Z 09003KT 11/M06 A3012 RMK A01 T01101056  RH  031%=      5-min Rain = 0
KFL1 191710Z 10003KT 11/M06 A3012 RMK A01 T01101058  RH  030%=      5-min Rain = 0
KFL1 191711Z 11003KT 11/M06 A3012 RMK A01 T01111055  RH  031%=      5-min Rain = 0
KFL1 191712Z 14003KT 11/M06 A3012 RMK A01 T01131055  RH  030%=      5-min Rain = 0
KFL1 191713Z 14004KT 11/M06 A3012 RMK A01 T01131057  RH  030%=      5-min Rain = 0
KFL1 191714Z 15003KT 11/M06 A3012 RMK A01 T01131057  RH  030%=      5-min Rain = 0
KFL1 191715Z 16004KT 11/M06 A3012 RMK A01 T01141056  RH  030%=      5-min Rain = 0
KFL1 191716Z 16004KT 12/M06 A3012 RMK A01 T01151057  RH  029%=      5-min Rain = 0
KFL1 191717Z 16004KT 12/M06 A3012 RMK A01 T01171056  RH  029%=      5-min Rain = 0
KFL1 191718Z 16003KT 12/M06 A3012 RMK A01 T01181057  RH  029%=      5-min Rain = 0
KFL1 191719Z 16001KT 12/M06 A3012 RMK A01 T01151059  RH  029%=      5-min Rain = 0
KFL1 191720Z 16002KT 11/M06 A3012 RMK A01 T01131059  RH  030%=      5-min Rain = 0
KFL1 191721Z 14001KT 11/M06 A3012 RMK A01 T01121058  RH  030%=      5-min Rain = 0
KFL1 191722Z 15002KT 12/M06 A3012 RMK A01 T01151055  RH  030%=      5-min Rain = 0
KFL1 191723Z 20002KT 12/M06 A3012 RMK A01 T01181055  RH  029%=      5-min Rain = 0
KFL1 191724Z 15002KT 12/M06 A3012 RMK A01 T01171058  RH  029%=      5-min Rain = 0
KFL1 191725Z 14003KT 12/M06 A3012 RMK A01 T01181058  RH  029%=      5-min Rain = 0
KFL1 191726Z 10002KT 12/M06 A3012 RMK A01 T01171058  RH  029%=      5-min Rain = 0
KFL1 191727Z 14002KT 12/M06 A3012 RMK A01 T01171058  RH  029%=      5-min Rain = 0
KFL1 191728Z 18002KT 12/M06 A3012 RMK A01 T01151057  RH  029%=      5-min Rain = 0
KFL1 191729Z 24001KT 12/M05 A3012 RMK A01 T01181053  RH  030%=      5-min Rain = 0
KFL1 191730Z 18001KT 12/M06 A3012 RMK A01 T01151057  RH  030%=      5-min Rain = 0
KFL1 191731Z 17000KT 12/M06 A3012 RMK A01 T01161057  RH  029%=      5-min Rain = 0
KFL1 191732Z 16003KT 12/M05 A3012 RMK A01 T01181054  RH  030%=      5-min Rain = 0
KFL1 191733Z 15003KT 12/M06 A3012 RMK A01 T01171056  RH  029%=      5-min Rain = 0
KFL1 191734Z 14004KT 12/M06 A3012 RMK A01 T01171056  RH  029%=      5-min Rain = 0
KFL1 191735Z 15003KT 12/M06 A3012 RMK A01 T01161057  RH  029%=      5-min Rain = 0
KFL1 191736Z 17002KT 12/M06 A3012 RMK A01 T01161057  RH  029%=      5-min Rain = 0
KFL1 191737Z 20002KT 12/M05 A3011 RMK A01 T01171054  RH  030%=      5-min Rain = 0
KFL1 191738Z 27001KT 12/M06 A3011 RMK A01 T01191055  RH  029%=      5-min Rain = 0
KFL1 191739Z 20001KT 12/M06 A3011 RMK A01 T01201055  RH  029%=      5-min Rain = 0
KFL1 191740Z 12001KT 12/M06 A3011 RMK A01 T01201056  RH  029%=      5-min Rain = 0
KFL1 191741Z 10002KT 12/M05 A3011 RMK A01 T01221054  RH  029%=      5-min Rain = 0
KFL1 191742Z 12003KT 12/M06 A3011 RMK A01 T01211056  RH  029%=      5-min Rain = 0
KFL1 191743Z 12004KT 12/M06 A3011 RMK A01 T01201056  RH  029%=      5-min Rain = 0
KFL1 191744Z 12003KT 12/M06 A3011 RMK A01 T01201056  RH  029%=      5-min Rain = 0
KFL1 191745Z 13002KT 12/M06 A3011 RMK A01 T01201055  RH  029%=      5-min Rain = 0
KFL1 191746Z 14002KT 12/M06 A3011 RMK A01 T01201056  RH  029%=      5-min Rain = 0
KFL1 191747Z 16002KT 12/M06 A3011 RMK A01 T01221055  RH  029%=      5-min Rain = 0
KFL1 191748Z 19003KT 12/M05 A3011 RMK A01 T01231053  RH  029%=      5-min Rain = 0
KFL1 191749Z 21003KT 13/M05 A3011 RMK A01 T01261050  RH  029%=      5-min Rain = 0
KFL1 191750Z 21002KT 13/M05 A3011 RMK A01 T01291052  RH  028%=      5-min Rain = 0
KFL1 191751Z 21004KT 13/M05 A3011 RMK A01 T01281054  RH  028%=      5-min Rain = 0
KFL1 191752Z 16005KT 13/M05 A3011 RMK A01 T01281054  RH  028%=      5-min Rain = 0
KFL1 191753Z 15004KT 13/M05 A3011 RMK A01 T01281054  RH  028%=      5-min Rain = 0
KFL1 191754Z 17002KT 13/M06 A3011 RMK A01 T01281055  RH  028%=      5-min Rain = 0
KFL1 191755Z 17002KT 13/M05 A3011 RMK A01 T01271054  RH  028%=      5-min Rain = 0
KFL1 191756Z 19003KT 13/M05 A3011 RMK A01 T01251053  RH  028%=      5-min Rain = 0
KFL1 191757Z 20004KT 13/M05 A3011 RMK A01 T01271051  RH  029%=      5-min Rain = 0
KFL1 191758Z 21005KT 12/M06 A3011 RMK A01 T01231055  RH  028%=      5-min Rain = 0
KFL1 191759Z 21003KT 12/M06 A3011 RMK A01 T01201056  RH  029%=      5-min Rain = 0
KFL1 191800Z 18004KT 12/M06 A3011 RMK A01 T01181055  RH  029%=      5-min Rain = 0
KFL1 191801Z 19004KT 12/M05 A3011 RMK A01 T01211053  RH  029%=      5-min Rain = 0
KFL1 191802Z 17004KT 12/M06 A3011 RMK A01 T01211055  RH  029%=      5-min Rain = 0
KFL1 191803Z 17004KT 12/M05 A3011 RMK A01 T01221053  RH  029%=      5-min Rain = 0
KFL1 191804Z 17006KT 12/M05 A3011 RMK A01 T01221053  RH  029%=      5-min Rain = 0
KFL1 191805Z 17004KT 12/M05 A3011 RMK A01 T01211054  RH  029%=      5-min Rain = 0
KFL1 191806Z 17006KT 12/M05 A3011 RMK A01 T01201053  RH  029%=      5-min Rain = 0
KFL1 191807Z 19004KT 12/M05 A3011 RMK A01 T01201053  RH  030%=      5-min Rain = 0
KFL1 191808Z 19004KT 12/M05 A3011 RMK A01 T01211050  RH  030%=      5-min Rain = 0
KFL1 191809Z 19004KT 12/M05 A3011 RMK A01 T01241050  RH  029%=      5-min Rain = 0
KFL1 191810Z 20005KT 12/M05 A3011 RMK A01 T01241050  RH  029%=      5-min Rain = 0
KFL1 191811Z 23005KT 12/M05 A3011 RMK A01 T01241050  RH  029%=      5-min Rain = 0
KFL1 191812Z 22006KT 12/M05 A301 RMK A01 T01231049  RH  030%=      5-min Rain = 0
KFL1 191813Z 22003KT 12/M05 A301 RMK A01 T01211049  RH  030%=      5-min Rain = 0
KFL1 191814Z 21005KT 12/M05 A301 RMK A01 T01221048  RH  030%=      5-min Rain = 0
KFL1 191815Z 22005KT 12/M05 A301 RMK A01 T01211048  RH  030%=      5-min Rain = 0
KFL1 191816Z 20004KT 12/M05 A301 RMK A01 T01231046  RH  030%=      5-min Rain = 0
KFL1 191817Z 20004KT 12/M05 A301 RMK A01 T01241046  RH  030%=      5-min Rain = 0
KFL1 191818Z 18005KT 13/M05 A301 RMK A01 T01261047  RH  030%=      5-min Rain = 0
KFL1 191819Z 19005KT 13/M05 A301 RMK A01 T01261048  RH  029%=      5-min Rain = 0
KFL1 191820Z 19004KT 12/M05 A301 RMK A01 T01241048  RH  030%=      5-min Rain = 0
KFL1 191821Z 20005KT 12/M05 A301 RMK A01 T01241048  RH  030%=      5-min Rain = 0
KFL1 191822Z 20004KT 13/M05 A301 RMK A01 T01251048  RH  030%=      5-min Rain = 0
KFL1 191823Z 20004KT 12/M05 A301 RMK A01 T01241047  RH  030%=      5-min Rain = 0
KFL1 191824Z 18005KT 12/M05 A301 RMK A01 T01231047  RH  030%=      5-min Rain = 0
KFL1 191825Z 18006KT 12/M05 A301 RMK A01 T01211050  RH  030%=      5-min Rain = 0
KFL1 191826Z 19004KT 12/M05 A301 RMK A01 T01211048  RH  030%=      5-min Rain = 0
KFL1 191827Z 22007KT 12/M05 A301 RMK A01 T01191049  RH  031%=      5-min Rain = 0
KFL1 191828Z 21007KT 12/M05 A301 RMK A01 T01191048  RH  031%=      5-min Rain = 0
KFL1 191829Z 20007KT 12/M05 A301 RMK A01 T01191048  RH  031%=      5-min Rain = 0
KFL1 191830Z 20006KT 12/M05 A301 RMK A01 T01181048  RH  031%=      5-min Rain = 0
KFL1 191831Z 20005KT 12/M05 A301 RMK A01 T01171048  RH  031%=      5-min Rain = 0
KFL1 191832Z 20005KT 12/M05 A301 RMK A01 T01171049  RH  031%=      5-min Rain = 0
KFL1 191833Z 20004KT 12/M05 A301 RMK A01 T01171048  RH  031%=      5-min Rain = 0
KFL1 191834Z 19005KT 12/M05 A301 RMK A01 T01181047  RH  031%=      5-min Rain = 0
KFL1 191835Z 20005KT 12/M05 A301 RMK A01 T01181047  RH  031%=      5-min Rain = 0
KFL1 191836Z 19005KT 12/M05 A301 RMK A01 T01191047  RH  031%=      5-min Rain = 0
KFL1 191837Z 20004KT 12/M05 A301 RMK A01 T01201047  RH  031%=      5-min Rain = 0
KFL1 191838Z 20005KT 12/M05 A301 RMK A01 T01181049  RH  031%=      5-min Rain = 0
KFL1 191839Z 20005KT 12/M05 A301 RMK A01 T01161050  RH  031%=      5-min Rain = 0
KFL1 191840Z 22005KT 12/M05 A301 RMK A01 T01191046  RH  031%=      5-min Rain = 0
KFL1 191841Z 21006KT 12/M05 A3009 RMK A01 T01191046  RH  031%=      5-min Rain = 0
KFL1 191842Z 22004KT 12/M05 A3009 RMK A01 T01201045  RH  031%=      5-min Rain = 0
KFL1 191843Z 24005KT 12/M05 A3009 RMK A01 T01201047  RH  031%=      5-min Rain = 0
KFL1 191844Z 24003KT 12/M05 A3009 RMK A01 T01211046  RH  031%=      5-min Rain = 0
KFL1 191845Z 22005KT 12/M05 A3009 RMK A01 T01201047  RH  031%=      5-min Rain = 0
KFL1 191846Z 21004KT 12/M05 A3009 RMK A01 T01201046  RH  031%=      5-min Rain = 0
KFL1 191847Z 20005KT 12/M05 A3009 RMK A01 T01221047  RH  030%=      5-min Rain = 0
KFL1 191848Z 20004KT 12/M05 A3009 RMK A01 T01221047  RH  030%=      5-min Rain = 0
KFL1 191849Z 17005KT 12/M05 A3009 RMK A01 T01231046  RH  030%=      5-min Rain = 0
KFL1 191850Z 20004KT 13/M05 A3009 RMK A01 T01251045  RH  030%=      5-min Rain = 0
KFL1 191851Z 22003KT 13/M05 A3009 RMK A01 T01261046  RH  030%=      5-min Rain = 0
KFL1 191852Z 19003KT 13/M05 A3009 RMK A01 T01251046  RH  030%=      5-min Rain = 0
KFL1 191853Z 19004KT 13/M05 A3009 RMK A01 T01251046  RH  030%=      5-min Rain = 0
KFL1 191854Z 18003KT 13/M05 A3008 RMK A01 T01251047  RH  030%=      5-min Rain = 0
KFL1 191855Z 18006KT 13/M05 A3008 RMK A01 T01251046  RH  030%=      5-min Rain = 0
KFL1 191856Z 20006KT 12/M05 A3008 RMK A01 T01241048  RH  030%=      5-min Rain = 0
KFL1 191857Z 18004KT 12/M05 A3008 RMK A01 T01231047  RH  030%=      5-min Rain = 0
KFL1 191858Z 19003KT 12/M05 A3008 RMK A01 T01241045  RH  031%=      5-min Rain = 0
KFL1 191859Z 19005KT 13/M04 A3009 RMK A01 T01251044  RH  031%=      5-min Rain = 0
KFL1 191900Z 19005KT 13/M04 A3009 RMK A01 T01271043  RH  030%=      5-min Rain = 0
KFL1 191901Z 17004KT 13/M05 A3009 RMK A01 T01271046  RH  029%=      5-min Rain = 0
KFL1 191902Z 17004KT 13/M04 A3008 RMK A01 T01281044  RH  030%=      5-min Rain = 0
KFL1 191903Z 19007KT 13/M04 A3008 RMK A01 T01301044  RH  030%=      5-min Rain = 0
KFL1 191904Z 19004KT 13/M04 A3008 RMK A01 T01311043  RH  030%=      5-min Rain = 0
KFL1 191905Z 19006KT 13/M04 A3008 RMK A01 T01311044  RH  029%=      5-min Rain = 0
KFL1 191906Z 18005KT 13/M04 A3008 RMK A01 T01341043  RH  029%=      5-min Rain = 0
KFL1 191907Z 20004KT 14/M04 A3008 RMK A01 T01371041  RH  029%=      5-min Rain = 0
KFL1 191908Z 20005KT 14/M04 A3008 RMK A01 T01371042  RH  029%=      5-min Rain = 0
KFL1 191909Z 18005KT 14/M04 A3008 RMK A01 T01391042  RH  028%=      5-min Rain = 0
KFL1 191910Z 18004KT 14/M04 A3008 RMK A01 T01371043  RH  028%=      5-min Rain = 0
KFL1 191911Z 17004KT 14/M05 A3008 RMK A01 T01371045  RH  028%=      5-min Rain = 0
KFL1 191912Z 19005KT 14/M04 A3008 RMK A01 T01371044  RH  028%=      5-min Rain = 0
KFL1 191913Z 19005KT 14/M04 A3008 RMK A01 T01371043  RH  028%=      5-min Rain = 0
KFL1 191914Z 20005KT 14/M05 A3008 RMK A01 T01361046  RH  028%=      5-min Rain = 0
KFL1 191915Z 20005KT 13/M05 A3008 RMK A01 T01331048  RH  028%=      5-min Rain = 0
KFL1 191916Z 19004KT 13/M05 A3008 RMK A01 T01331046  RH  028%=      5-min Rain = 0
KFL1 191917Z 19003KT 13/M05 A3008 RMK A01 T01341046  RH  028%=      5-min Rain = 0
KFL1 191918Z 16003KT 13/M05 A3007 RMK A01 T01331048  RH  028%=      5-min Rain = 0
KFL1 191919Z 19002KT 13/M05 A3007 RMK A01 T01331047  RH  028%=      5-min Rain = 0
KFL1 191920Z 14002KT 13/M05 A3007 RMK A01 T01311049  RH  028%=      5-min Rain = 0
KFL1 191921Z 14002KT 13/M05 A3007 RMK A01 T01301048  RH  029%=      5-min Rain = 0
KFL1 191922Z 20004KT 13/M05 A3007 RMK A01 T01291048  RH  029%=      5-min Rain = 0
KFL1 191923Z 20004KT 13/M05 A3007 RMK A01 T01301047  RH  029%=      5-min Rain = 0
KFL1 191924Z 20003KT 13/M05 A3007 RMK A01 T01281049  RH  029%=      5-min Rain = 0
KFL1 191925Z 15002KT 13/M05 A3007 RMK A01 T01291048  RH  029%=      5-min Rain = 0
KFL1 191926Z 12002KT 13/M05 A3007 RMK A01 T01261051  RH  029%=      5-min Rain = 0
KFL1 191927Z 14002KT 13/M05 A3007 RMK A01 T01261050  RH  029%=      5-min Rain = 0
KFL1 191928Z 21002KT 13/M05 A3007 RMK A01 T01271050  RH  029%=      5-min Rain = 0
KFL1 191929Z 24002KT 13/M05 A3007 RMK A01 T01271050  RH  029%=      5-min Rain = 0
KFL1 191930Z 25004KT 13/M05 A3007 RMK A01 T01301048  RH  029%=      5-min Rain = 0
KFL1 191931Z 25003KT 13/M05 A3007 RMK A01 T01311049  RH  028%=      5-min Rain = 0
KFL1 191932Z 26003KT 13/M05 A3007 RMK A01 T01331047  RH  028%=      5-min Rain = 0
KFL1 191933Z 25004KT 14/M04 A3007 RMK A01 T01371044  RH  028%=      5-min Rain = 0
KFL1 191934Z 25002KT 14/M05 A3006 RMK A01 T01391047  RH  027%=      5-min Rain = 0
KFL1 191935Z 24001KT 14/M05 A3006 RMK A01 T01391049  RH  027%=      5-min Rain = 0
KFL1 191936Z 17002KT 14/M05 A3006 RMK A01 T01381049  RH  027%=      5-min Rain = 0
KFL1 191937Z 19003KT 14/M05 A3006 RMK A01 T01421045  RH  027%=      5-min Rain = 0
KFL1 191938Z 21003KT 14/M05 A3006 RMK A01 T01441046  RH  027%=      5-min Rain = 0
KFL1 191939Z 22002KT 14/M05 A3006 RMK A01 T01441047  RH  026%=      5-min Rain = 0
KFL1 191940Z 26002KT 15/M05 A3006 RMK A01 T01451046  RH  026%=      5-min Rain = 0
KFL1 191941Z 27001KT 15/M05 A3006 RMK A01 T01461048  RH  026%=      5-min Rain = 0
KFL1 191942Z 11001KT 14/M05 A3006 RMK A01 T01431049  RH  026%=      5-min Rain = 0
KFL1 191943Z 18002KT 14/M05 A3006 RMK A01 T01401049  RH  027%=      5-min Rain = 0
KFL1 191944Z 24004KT 14/M05 A3006 RMK A01 T01371051  RH  027%=      5-min Rain = 0
KFL1 191945Z 22003KT 14/M05 A3006 RMK A01 T01361049  RH  027%=      5-min Rain = 0
KFL1 191946Z 22001KT 14/M05 A3006 RMK A01 T01351049  RH  027%=      5-min Rain = 0
KFL1 191947Z 21002KT 13/M05 A3006 RMK A01 T01341050  RH  028%=      5-min Rain = 0
KFL1 191948Z 21002KT 13/M05 A3006 RMK A01 T01341049  RH  028%=      5-min Rain = 0
KFL1 191949Z 22002KT 13/M05 A3006 RMK A01 T01331049  RH  028%=      5-min Rain = 0
KFL1 191950Z 22005KT 13/M05 A3006 RMK A01 T01331048  RH  028%=      5-min Rain = 0
KFL1 191951Z 20007KT 13/M05 A3006 RMK A01 T01321048  RH  028%=      5-min Rain = 0
KFL1 191952Z 21006KT 13/M05 A3006 RMK A01 T01321048  RH  028%=      5-min Rain = 0
KFL1 191953Z 21006KT 13/M05 A3006 RMK A01 T01311050  RH  028%=      5-min Rain = 0
KFL1 191954Z 19005KT 13/M05 A3006 RMK A01 T01301049  RH  028%=      5-min Rain = 0
KFL1 191955Z 20005KT 13/M05 A3006 RMK A01 T01291050  RH  028%=      5-min Rain = 0
KFL1 191956Z 21007KT 13/M05 A3006 RMK A01 T01271050  RH  029%=      5-min Rain = 0
KFL1 191957Z 22007KT 13/M05 A3006 RMK A01 T01271049  RH  029%=      5-min Rain = 0
KFL1 191958Z 22007KT 13/M05 A3006 RMK A01 T01271048  RH  029%=      5-min Rain = 0
KFL1 191959Z 21007KT 13/M05 A3006 RMK A01 T01281047  RH  029%=      5-min Rain = 0
KFL1 192000Z 20006KT 13/M05 A3006 RMK A01 T01281048  RH  029%=      5-min Rain = 0
KFL1 192001Z 19007KT 13/M05 A3006 RMK A01 T01291049  RH  029%=      5-min Rain = 0
KFL1 192002Z 20004KT 13/M05 A3006 RMK A01 T01281051  RH  028%=      5-min Rain = 0
KFL1 192003Z 19006KT 13/M05 A3006 RMK A01 T01301048  RH  029%=      5-min Rain = 0
KFL1 192004Z 21006KT 13/M05 A3006 RMK A01 T01301048  RH  029%=      5-min Rain = 0
KFL1 192005Z 19006KT 13/M05 A3006 RMK A01 T01311047  RH  029%=      5-min Rain = 0
KFL1 192006Z 19006KT 13/M05 A3006 RMK A01 T01311049  RH  028%=      5-min Rain = 0
KFL1 192007Z 21008KT 13/M05 A3006 RMK A01 T01321048  RH  028%=      5-min Rain = 0
KFL1 192008Z 21008KT 13/M05 A3006 RMK A01 T01341046  RH  028%=      5-min Rain = 0
KFL1 192009Z 21008KT 13/M05 A3006 RMK A01 T01341047  RH  028%=      5-min Rain = 0
KFL1 192010Z 21007KT 14/M05 A3006 RMK A01 T01361046  RH  028%=      5-min Rain = 0
KFL1 192011Z 20007KT 14/M05 A3006 RMK A01 T01371047  RH  028%=      5-min Rain = 0
KFL1 192012Z 19008KT 14/M05 A3006 RMK A01 T01411045  RH  027%=      5-min Rain = 0
KFL1 192013Z 19008KT 14/M05 A3006 RMK A01 T01441046  RH  027%=      5-min Rain = 0
KFL1 192014Z 19006KT 14/M05 A3005 RMK A01 T01411050  RH  026%=      5-min Rain = 0
KFL1 192015Z 19004KT 14/M05 A3005 RMK A01 T01391049  RH  027%=      5-min Rain = 0
KFL1 192016Z 18003KT 14/M05 A3005 RMK A01 T01361051  RH  027%=      5-min Rain = 0
KFL1 192017Z 18003KT 14/M05 A3005 RMK A01 T01351050  RH  027%=      5-min Rain = 0
KFL1 192018Z 21005KT 13/M05 A3005 RMK A01 T01321051  RH  028%=      5-min Rain = 0
KFL1 192019Z 21006KT 13/M05 A3005 RMK A01 T01311050  RH  028%=      5-min Rain = 0
KFL1 192020Z 21007KT 13/M05 A3005 RMK A01 T01301051  RH  028%=      5-min Rain = 0
KFL1 192021Z 21006KT 13/M05 A3005 RMK A01 T01281052  RH  028%=      5-min Rain = 0
KFL1 192022Z 20006KT 13/M05 A3005 RMK A01 T01291053  RH  028%=      5-min Rain = 0
KFL1 192023Z 21008KT 13/M06 A3004 RMK A01 T01261056  RH  028%=      5-min Rain = 0
KFL1 192024Z 20005KT 13/M06 A3004 RMK A01 T01271055  RH  028%=      5-min Rain = 0
KFL1 192025Z 21005KT 13/M06 A3004 RMK A01 T01251055  RH  028%=      5-min Rain = 0
KFL1 192026Z 21008KT 13/M05 A3004 RMK A01 T01251054  RH  028%=      5-min Rain = 0
KFL1 192027Z 21008KT 13/M06 A3004 RMK A01 T01251055  RH  028%=      5-min Rain = 0
KFL1 192028Z 21010KT 13/M06 A3004 RMK A01 T01271056  RH  027%=      5-min Rain = 0
KFL1 192029Z 21009KT 13/M06 A3004 RMK A01 T01271060  RH  027%=      5-min Rain = 0
KFL1 192030Z 21010KT 13/M06 A3004 RMK A01 T01281061  RH  026%=      5-min Rain = 0
KFL1 192031Z 22010KT 13/M06 A3004 RMK A01 T01281056  RH  027%=      5-min Rain = 0
KFL1 192032Z 23007KT 13/M06 A3004 RMK A01 T01271057  RH  027%=      5-min Rain = 0
KFL1 192033Z 22007KT 13/M06 A3004 RMK A01 T01301056  RH  027%=      5-min Rain = 0
KFL1 192034Z 23008KT 13/M05 A3004 RMK A01 T01321053  RH  027%=      5-min Rain = 0
KFL1 192035Z 23009KT 13/M05 A3004 RMK A01 T01341050  RH  027%=      5-min Rain = 0
KFL1 192036Z 23006KT 13/M05 A3004 RMK A01 T01321054  RH  027%=      5-min Rain = 0
KFL1 192037Z 23007KT 13/M05 A3004 RMK A01 T01311054  RH  027%=      5-min Rain = 0
KFL1 192038Z 22006KT 13/M06 A3004 RMK A01 T01301058  RH  027%=      5-min Rain = 0
KFL1 192039Z 23006KT 13/M06 A3004 RMK A01 T01291061  RH  026%=      5-min Rain = 0
KFL1 192040Z 21008KT 13/M06 A3004 RMK A01 T01291057  RH  027%=      5-min Rain = 0
KFL1 192041Z 21009KT 13/M06 A3004 RMK A01 T01301055  RH  027%=      5-min Rain = 0
KFL1 192042Z 22008KT 13/M06 A3004 RMK A01 T01301056  RH  027%=      5-min Rain = 0
KFL1 192043Z 21009KT 13/M06 A3004 RMK A01 T01301057  RH  027%=      5-min Rain = 0
KFL1 192044Z 21008KT 13/M06 A3003 RMK A01 T01301060  RH  026%=      5-min Rain = 0
KFL1 192045Z 21007KT 13/M06 A3003 RMK A01 T01291060  RH  026%=      5-min Rain = 0
KFL1 192046Z 20005KT 13/M06 A3003 RMK A01 T01271060  RH  027%=      5-min Rain = 0
KFL1 192047Z 22008KT 13/M06 A3003 RMK A01 T01291058  RH  027%=      5-min Rain = 0
KFL1 192048Z 23006KT 13/M06 A3003 RMK A01 T01301059  RH  026%=      5-min Rain = 0
KFL1 192049Z 23007KT 13/M06 A3003 RMK A01 T01321058  RH  026%=      5-min Rain = 0
KFL1 192050Z 22007KT 13/M06 A3003 RMK A01 T01321058  RH  026%=      5-min Rain = 0
KFL1 192051Z 23004KT 13/M06 A3003 RMK A01 T01331062  RH  025%=      5-min Rain = 0
KFL1 192052Z 24005KT 14/M06 A3003 RMK A01 T01361059  RH  025%=      5-min Rain = 0
KFL1 192053Z 23006KT 14/M06 A3003 RMK A01 T01391057  RH  025%=      5-min Rain = 0
KFL1 192054Z 23008KT 14/M06 A3003 RMK A01 T01401060  RH  025%=      5-min Rain = 0
KFL1 192055Z 25007KT 14/M06 A3003 RMK A01 T01421062  RH  024%=      5-min Rain = 0
KFL1 192056Z 25009KT 14/M06 A3003 RMK A01 T01401063  RH  024%=      5-min Rain = 0
KFL1 192057Z 22007KT 14/M07 A3003 RMK A01 T01441066  RH  023%=      5-min Rain = 0
KFL1 192058Z 23004KT 14/M07 A3003 RMK A01 T01431072  RH  022%=      5-min Rain = 0
KFL1 192059Z 25003KT 15/M07 A3003 RMK A01 T01451069  RH  022%=      5-min Rain = 0
KFL1 192100Z 23006G11KT 14/M07 A3003 RMK A01 T01441067  RH  023%=      5-min Rain = 0
KFL1 192101Z 23009KT 15/M06 A3003 RMK A01 T01451060  RH  024%=      5-min Rain = 0
KFL1 192102Z 22006KT 15/M06 A3003 RMK A01 T01471063  RH  023%=      5-min Rain = 0
KFL1 192103Z 21006KT 15/M07 A3003 RMK A01 T01451065  RH  023%=      5-min Rain = 0
KFL1 192104Z 18003KT 14/M06 A3003 RMK A01 T01441064  RH  023%=      5-min Rain = 0
KFL1 192105Z 19004KT 15/M07 A3003 RMK A01 T01451069  RH  022%=      5-min Rain = 0
KFL1 192106Z 22004KT 15/M07 A3002 RMK A01 T01461066  RH  023%=      5-min Rain = 0
KFL1 192107Z 24003KT 15/M07 A3002 RMK A01 T01471066  RH  022%=      5-min Rain = 0
KFL1 192108Z 25004KT 15/M07 A3002 RMK A01 T01471065  RH  022%=      5-min Rain = 0
KFL1 192109Z 24004KT 15/M07 A3002 RMK A01 T01461065  RH  023%=      5-min Rain = 0
KFL1 192110Z 24004KT 15/M06 A3002 RMK A01 T01471063  RH  023%=      5-min Rain = 0
KFL1 192111Z 26006KT 15/M06 A3002 RMK A01 T01491060  RH  023%=      5-min Rain = 0
KFL1 192112Z 28004KT 15/M06 A3002 RMK A01 T01511058  RH  023%=      5-min Rain = 0
KFL1 192113Z 29004KT 15/M06 A3002 RMK A01 T01491059  RH  023%=      5-min Rain = 0
KFL1 192114Z 26003KT 15/M06 A3002 RMK A01 T01511058  RH  023%=      5-min Rain = 0
KFL1 192115Z 22007KT 15/M06 A3002 RMK A01 T01521060  RH  023%=      5-min Rain = 0
KFL1 192116Z 22003KT 15/M06 A3002 RMK A01 T01511064  RH  022%=      5-min Rain = 0
KFL1 192117Z 21003KT 15/M07 A3001 RMK A01 T01471067  RH  022%=      5-min Rain = 0
KFL1 192118Z 24006KT 15/M06 A3001 RMK A01 T01461064  RH  023%=      5-min Rain = 0
KFL1 192119Z 26005KT 15/M06 A3001 RMK A01 T01471061  RH  023%=      5-min Rain = 0
KFL1 192120Z 28003KT 14/M06 A3001 RMK A01 T01441064  RH  023%=      5-min Rain = 0
KFL1 192121Z 28002KT 14/M07 A3001 RMK A01 T01421066  RH  023%=      5-min Rain = 0
KFL1 192122Z 21004KT 14/M07 A3001 RMK A01 T01421065  RH  023%=      5-min Rain = 0
KFL1 192123Z 21005KT 14/M06 A3001 RMK A01 T01441062  RH  024%=      5-min Rain = 0
KFL1 192124Z 22006KT 15/M06 A3001 RMK A01 T01471063  RH  023%=      5-min Rain = 0
KFL1 192125Z 25006KT 15/M07 A3001 RMK A01 T01471067  RH  022%=      5-min Rain = 0
KFL1 192126Z 25005KT 15/M07 A3001 RMK A01 T01461068  RH  022%=      5-min Rain = 0
KFL1 192127Z 24006KT 14/M07 A3001 RMK A01 T01441067  RH  023%=      5-min Rain = 0
KFL1 192128Z 25006KT 14/M07 A3001 RMK A01 T01441067  RH  023%=      5-min Rain = 0
KFL1 192129Z 25003KT 15/M07 A3001 RMK A01 T01451066  RH  023%=      5-min Rain = 0
KFL1 192130Z 27002KT 14/M07 A30 RMK A01 T01391070  RH  023%=      5-min Rain = 0
KFL1 192131Z 27003KT 14/M07 A30 RMK A01 T01391067  RH  023%=      5-min Rain = 0
KFL1 192132Z 20004KT 14/M07 A30 RMK A01 T01391066  RH  024%=      5-min Rain = 0
KFL1 192133Z 26005KT 14/M06 A30 RMK A01 T01411064  RH  024%=      5-min Rain = 0
KFL1 192134Z 27006KT 14/M06 A30 RMK A01 T01431062  RH  024%=      5-min Rain = 0
KFL1 192135Z 28006KT 15/M06 A30 RMK A01 T01451063  RH  023%=      5-min Rain = 0
KFL1 192136Z 27005KT 15/M06 A30 RMK A01 T01481061  RH  023%=      5-min Rain = 0
KFL1 192137Z 23003KT 15/M06 A30 RMK A01 T01481063  RH  023%=      5-min Rain = 0
KFL1 192138Z 24003KT 15/M06 A30 RMK A01 T01471063  RH  023%=      5-min Rain = 0
KFL1 192139Z 18003KT 15/M06 A30 RMK A01 T01461064  RH  023%=      5-min Rain = 0
KFL1 192140Z 21005KT 15/M07 A30 RMK A01 T01461065  RH  023%=      5-min Rain = 0
KFL1 192141Z 24005KT 15/M07 A30 RMK A01 T01461065  RH  023%=      5-min Rain = 0
KFL1 192142Z 23005KT 15/M06 A30 RMK A01 T01471063  RH  023%=      5-min Rain = 0
KFL1 192143Z 22004KT 14/M07 A30 RMK A01 T01441066  RH  023%=      5-min Rain = 0
KFL1 192144Z 22003KT 14/M07 A30 RMK A01 T01441067  RH  023%=      5-min Rain = 0
KFL1 192145Z 19003KT 14/M07 A30 RMK A01 T01421070  RH  023%=      5-min Rain = 0
KFL1 192146Z 17003KT 14/M07 A30 RMK A01 T01421068  RH  023%=      5-min Rain = 0
KFL1 192147Z 19003KT 14/M07 A30 RMK A01 T01421066  RH  023%=      5-min Rain = 0
KFL1 192148Z 19005KT 14/M07 A30 RMK A01 T01411065  RH  023%=      5-min Rain = 0
KFL1 192149Z 20004KT 14/M07 A30 RMK A01 T01411066  RH  023%=      5-min Rain = 0
KFL1 192150Z 22002KT 14/M07 A30 RMK A01 T01401067  RH  023%=      5-min Rain = 0
KFL1 192151Z 21004KT 14/M07 A30 RMK A01 T01401066  RH  023%=      5-min Rain = 0
KFL1 192152Z 22005KT 14/M07 A30 RMK A01 T01411065  RH  023%=      5-min Rain = 0
KFL1 192153Z 21003KT 14/M07 A2999 RMK A01 T01421066  RH  023%=      5-min Rain = 0
KFL1 192154Z 18003KT 14/M07 A2999 RMK A01 T01411066  RH  023%=      5-min Rain = 0
KFL1 192155Z 21003KT 14/M07 A2999 RMK A01 T01431065  RH  023%=      5-min Rain = 0
KFL1 192156Z 22004KT 14/M07 A2999 RMK A01 T01421067  RH  023%=      5-min Rain = 0
KFL1 192157Z 25001KT 14/M07 A2999 RMK A01 T01401068  RH  023%=      5-min Rain = 0
KFL1 192158Z 21002KT 14/M07 A2999 RMK A01 T01381068  RH  023%=      5-min Rain = 0
KFL1 192159Z 20002KT 14/M07 A2999 RMK A01 T01381068  RH  023%=      5-min Rain = 0
KFL1 192200Z 18001KT 14/M07 A2999 RMK A01 T01371067  RH  024%=      5-min Rain = 0
KFL1 192201Z 15001KT 14/M07 A2999 RMK A01 T01361068  RH  024%=      5-min Rain = 0
KFL1 192202Z 18001KT 14/M07 A2999 RMK A01 T01351067  RH  024%=      5-min Rain = 0
KFL1 192203Z 17003KT 13/M07 A2999 RMK A01 T01341067  RH  024%=      5-min Rain = 0
KFL1 192204Z 20006KT 13/M07 A2999 RMK A01 T01331067  RH  024%=      5-min Rain = 0
KFL1 192205Z 21004KT 13/M07 A2999 RMK A01 T01331068  RH  024%=      5-min Rain = 0
KFL1 192206Z 23004KT 14/M07 A2999 RMK A01 T01351066  RH  024%=      5-min Rain = 0
KFL1 192207Z 22003KT 14/M06 A2999 RMK A01 T01371064  RH  024%=      5-min Rain = 0
KFL1 192208Z 20004KT 14/M07 A2999 RMK A01 T01371067  RH  024%=      5-min Rain = 0
KFL1 192209Z 22004KT 14/M07 A2999 RMK A01 T01391066  RH  024%=      5-min Rain = 0
KFL1 192210Z 21005KT 14/M06 A2999 RMK A01 T01401064  RH  024%=      5-min Rain = 0
KFL1 192211Z 21004KT 14/M07 A2999 RMK A01 T01391067  RH  023%=      5-min Rain = 0
KFL1 192212Z 20003KT 14/M07 A2999 RMK A01 T01391067  RH  023%=      5-min Rain = 0
KFL1 192213Z 20004KT 14/M07 A2999 RMK A01 T01391066  RH  024%=      5-min Rain = 0
KFL1 192214Z 20003KT 14/M07 A2999 RMK A01 T01381066  RH  024%=      5-min Rain = 0
KFL1 192215Z 19003KT 14/M06 A2999 RMK A01 T01391064  RH  024%=      5-min Rain = 0
KFL1 192216Z 17003KT 14/M06 A2999 RMK A01 T01391063  RH  024%=      5-min Rain = 0
KFL1 192217Z 18003KT 14/M07 A2999 RMK A01 T01351065  RH  024%=      5-min Rain = 0
KFL1 192218Z 16004KT 13/M07 A2999 RMK A01 T01321067  RH  024%=      5-min Rain = 0
KFL1 192219Z 17004KT 13/M07 A2999 RMK A01 T01301068  RH  025%=      5-min Rain = 0
KFL1 192220Z 17003KT 13/M07 A2999 RMK A01 T01291067  RH  025%=      5-min Rain = 0
KFL1 192221Z 17003KT 13/M07 A2999 RMK A01 T01281067  RH  025%=      5-min Rain = 0
KFL1 192222Z 17002KT 13/M07 A2999 RMK A01 T01271067  RH  025%=      5-min Rain = 0
KFL1 192223Z 19003KT 13/M07 A2999 RMK A01 T01271066  RH  025%=      5-min Rain = 0
KFL1 192224Z 16003KT 13/M07 A2999 RMK A01 T01281066  RH  025%=      5-min Rain = 0
KFL1 192225Z 16004KT 13/M06 A2999 RMK A01 T01301064  RH  025%=      5-min Rain = 0
KFL1 192226Z 16004KT 13/M07 A2999 RMK A01 T01291066  RH  025%=      5-min Rain = 0
KFL1 192227Z 16004KT 13/M07 A2999 RMK A01 T01301065  RH  025%=      5-min Rain = 0
KFL1 192228Z 15004KT 13/M06 A2999 RMK A01 T01321062  RH  025%=      5-min Rain = 0
KFL1 192229Z 18004KT 13/M06 A2999 RMK A01 T01321064  RH  025%=      5-min Rain = 0
KFL1 192230Z 18005KT 13/M06 A2999 RMK A01 T01341063  RH  025%=      5-min Rain = 0
KFL1 192231Z 18004KT 13/M06 A2999 RMK A01 T01341063  RH  025%=      5-min Rain = 0
KFL1 192232Z 18004KT 14/M06 A2999 RMK A01 T01351062  RH  025%=      5-min Rain = 0
KFL1 192233Z 17003KT 13/M06 A2999 RMK A01 T01341063  RH  025%=      5-min Rain = 0
KFL1 192234Z 17003KT 14/M06 A2999 RMK A01 T01351062  RH  025%=      5-min Rain = 0
KFL1 192235Z 17003KT 14/M06 A2999 RMK A01 T01361061  RH  025%=      5-min Rain = 0
KFL1 192236Z 19002KT 14/M06 A2999 RMK A01 T01361062  RH  025%=      5-min Rain = 0
KFL1 192237Z 20003KT 14/M06 A2999 RMK A01 T01351063  RH  025%=      5-min Rain = 0
KFL1 192238Z 21003KT 14/M06 A2999 RMK A01 T01361062  RH  025%=      5-min Rain = 0
KFL1 192239Z 21004KT 14/M06 A2999 RMK A01 T01361061  RH  025%=      5-min Rain = 0
KFL1 192240Z 20003KT 14/M06 A2998 RMK A01 T01361062  RH  025%=      5-min Rain = 0
KFL1 192241Z 22003KT 14/M06 A2998 RMK A01 T01371060  RH  025%=      5-min Rain = 0
KFL1 192242Z 21002KT 14/M06 A2998 RMK A01 T01371060  RH  025%=      5-min Rain = 0
KFL1 192243Z 19001KT 14/M06 A2998 RMK A01 T01371060  RH  025%=      5-min Rain = 0
KFL1 192244Z 17003KT 13/M06 A2998 RMK A01 T01341063  RH  025%=      5-min Rain = 0
KFL1 192245Z 18003KT 13/M06 A2998 RMK A01 T01331062  RH  025%=      5-min Rain = 0
KFL1 192246Z 18005KT 13/M06 A2998 RMK A01 T01311063  RH  025%=      5-min Rain = 0
KFL1 192247Z 18004KT 13/M06 A2998 RMK A01 T01291063  RH  026%=      5-min Rain = 0
KFL1 192248Z 19002KT 13/M06 A2998 RMK A01 T01291062  RH  026%=      5-min Rain = 0
KFL1 192249Z 19005KT 13/M06 A2998 RMK A01 T01291062  RH  026%=      5-min Rain = 0
KFL1 192250Z 17004KT 13/M06 A2998 RMK A01 T01271063  RH  026%=      5-min Rain = 0
KFL1 192251Z 17005KT 13/M06 A2998 RMK A01 T01271062  RH  026%=      5-min Rain = 0
KFL1 192252Z 18005KT 13/M06 A2999 RMK A01 T01261062  RH  026%=      5-min Rain = 0
KFL1 192253Z 18004KT 13/M06 A2999 RMK A01 T01261061  RH  027%=      5-min Rain = 0
KFL1 192254Z 20006KT 13/M06 A2999 RMK A01 T01251062  RH  027%=      5-min Rain = 0
KFL1 192255Z 19005KT 13/M06 A2998 RMK A01 T01251061  RH  027%=      5-min Rain = 0
KFL1 192256Z 19005KT 13/M06 A2998 RMK A01 T01261060  RH  027%=      5-min Rain = 0
KFL1 192257Z 19004KT 12/M06 A2998 RMK A01 T01241062  RH  027%=      5-min Rain = 0
KFL1 192258Z 19003KT 12/M06 A2998 RMK A01 T01241062  RH  027%=      5-min Rain = 0
KFL1 192259Z 19003KT 12/M06 A2998 RMK A01 T01241061  RH  027%=      5-min Rain = 0
KFL1 192300Z 20004KT 12/M06 A2998 RMK A01 T01231061  RH  027%=      5-min Rain = 0
KFL1 192301Z 20004KT 12/M06 A2998 RMK A01 T01221061  RH  027%=      5-min Rain = 0
KFL1 192302Z 20003KT 12/M06 A2998 RMK A01 T01221061  RH  027%=      5-min Rain = 0
KFL1 192303Z 19004KT 12/M06 A2998 RMK A01 T01211061  RH  028%=      5-min Rain = 0
KFL1 192304Z 20003KT 12/M06 A2998 RMK A01 T01191062  RH  028%=      5-min Rain = 0
KFL1 192305Z 20004KT 12/M06 A2998 RMK A01 T01191062  RH  028%=      5-min Rain = 0
KFL1 192306Z 19004KT 12/M06 A2998 RMK A01 T01191061  RH  028%=      5-min Rain = 0
KFL1 192307Z 19003KT 12/M06 A2998 RMK A01 T01191061  RH  028%=      5-min Rain = 0
KFL1 192308Z 19003KT 12/M06 A2998 RMK A01 T01181062  RH  028%=      5-min Rain = 0
KFL1 192309Z 19003KT 12/M06 A2998 RMK A01 T01171062  RH  028%=      5-min Rain = 0
KFL1 192310Z 19002KT 12/M06 A2998 RMK A01 T01181061  RH  028%=      5-min Rain = 0
KFL1 192311Z 20002KT 12/M06 A2998 RMK A01 T01171061  RH  028%=      5-min Rain = 0
KFL1 192312Z 20003KT 12/M06 A2998 RMK A01 T01161062  RH  028%=      5-min Rain = 0
KFL1 192313Z 20003KT 12/M06 A2998 RMK A01 T01151062  RH  028%=      5-min Rain = 0
KFL1 192314Z 20003KT 12/M06 A2998 RMK A01 T01161061  RH  028%=      5-min Rain = 0
KFL1 192315Z 20004KT 12/M06 A2998 RMK A01 T01151061  RH  028%=      5-min Rain = 0
KFL1 192316Z 21004KT 12/M06 A2998 RMK A01 T01151062  RH  029%=      5-min Rain = 0
KFL1 192317Z 21004KT 11/M06 A2998 RMK A01 T01131063  RH  029%=      5-min Rain = 0
KFL1 192318Z 20005KT 11/M06 A2999 RMK A01 T01121064  RH  029%=      5-min Rain = 0
KFL1 192319Z 20005KT 11/M06 A2999 RMK A01 T01141060  RH  029%=      5-min Rain = 0
KFL1 192320Z 19005KT 11/M06 A2999 RMK A01 T01111063  RH  029%=      5-min Rain = 0
KFL1 192321Z 19005KT 11/M06 A2999 RMK A01 T01121061  RH  029%=      5-min Rain = 0
KFL1 192322Z 19004KT 11/M06 A2999 RMK A01 T01101061  RH  029%=      5-min Rain = 0
KFL1 192323Z 19004KT 11/M06 A2999 RMK A01 T01091062  RH  030%=      5-min Rain = 0
KFL1 192324Z 18004KT 11/M06 A2999 RMK A01 T01081062  RH  030%=      5-min Rain = 0
KFL1 192325Z 18003KT 11/M06 A2999 RMK A01 T01071063  RH  030%=      5-min Rain = 0
KFL1 192326Z 18003KT 11/M06 A2999 RMK A01 T01081062  RH  030%=      5-min Rain = 0
KFL1 192327Z 17003KT 11/M06 A2999 RMK A01 T01081062  RH  030%=      5-min Rain = 0
KFL1 192328Z 17003KT 11/M06 A2999 RMK A01 T01081062  RH  030%=      5-min Rain = 0
KFL1 192329Z 17002KT 11/M06 A2999 RMK A01 T01081061  RH  030%=      5-min Rain = 0
KFL1 192330Z 17003KT 11/M06 A2999 RMK A01 T01101060  RH  030%=      5-min Rain = 0
KFL1 192331Z 17003KT 11/M06 A2999 RMK A01 T01091061  RH  030%=      5-min Rain = 0
KFL1 192332Z 17002KT 11/M06 A2999 RMK A01 T01071063  RH  030%=      5-min Rain = 0
KFL1 192333Z 17003KT 11/M06 A2999 RMK A01 T01071062  RH  030%=      5-min Rain = 0
KFL1 192334Z 17003KT 11/M06 A2999 RMK A01 T01081062  RH  030%=      5-min Rain = 0
KFL1 192335Z 17004KT 11/M06 A2999 RMK A01 T01081061  RH  030%=      5-min Rain = 0
KFL1 192336Z 16003KT 11/M06 A2999 RMK A01 T01061063  RH  030%=      5-min Rain = 0
KFL1 192337Z 16003KT 11/M06 A2999 RMK A01 T01061062  RH  030%=      5-min Rain = 0
KFL1 192338Z 16003KT 11/M06 A2999 RMK A01 T01061062  RH  030%=      5-min Rain = 0
KFL1 192339Z 17003KT 11/M06 A2999 RMK A01 T01051062  RH  030%=      5-min Rain = 0
KFL1 192340Z 17003KT 10/M06 A2999 RMK A01 T01041063  RH  030%=      5-min Rain = 0
KFL1 192341Z 18003KT 10/M06 A2999 RMK A01 T01041063  RH  030%=      5-min Rain = 0
KFL1 192342Z 18003KT 10/M06 A2999 RMK A01 T01031062  RH  031%=      5-min Rain = 0
KFL1 192343Z 18003KT 10/M06 A2999 RMK A01 T01021064  RH  031%=      5-min Rain = 0
KFL1 192344Z 18003KT 10/M06 A2999 RMK A01 T01011064  RH  031%=      5-min Rain = 0
KFL1 192345Z 18003KT 10/M06 A2999 RMK A01 T01011063  RH  031%=      5-min Rain = 0
KFL1 192346Z 18003KT 10/M06 A2999 RMK A01 T01011063  RH  031%=      5-min Rain = 0
KFL1 192347Z 19002KT 10/M06 A2999 RMK A01 T00991064  RH  031%=      5-min Rain = 0
KFL1 192348Z 19002KT 10/M06 A2999 RMK A01 T01001063  RH  031%=      5-min Rain = 0
KFL1 192349Z 19003KT 10/M06 A2999 RMK A01 T00991063  RH  031%=      5-min Rain = 0
KFL1 192350Z 20002KT 10/M06 A2999 RMK A01 T00981064  RH  031%=      5-min Rain = 0
KFL1 192351Z 19003KT 10/M07 A2999 RMK A01 T00971065  RH  031%=      5-min Rain = 0
KFL1 192352Z 19003KT 10/M06 A2999 RMK A01 T00971064  RH  032%=      5-min Rain = 0
KFL1 192353Z 19003KT 10/M06 A2998 RMK A01 T00971063  RH  032%=      5-min Rain = 0
KFL1 192354Z 18003KT 10/M06 A2998 RMK A01 T00971063  RH  032%=      5-min Rain = 0
KFL1 192355Z 18003KT 10/M06 A2998 RMK A01 T00961064  RH  032%=      5-min Rain = 0
KFL1 192356Z 19003KT 10/M06 A2998 RMK A01 T00961064  RH  032%=      5-min Rain = 0
KFL1 192357Z 19003KT 09/M07 A2998 RMK A01 T00941065  RH  032%=      5-min Rain = 0
KFL1 192358Z 18002KT 10/M06 A2998 RMK A01 T00951064  RH  032%=      5-min Rain = 0
KFL1 192359Z 18002KT 10/M06 A2998 RMK A01 T00951064  RH  032%=      5-min Rain = 0
KFL1 200000Z 18002KT 09/M06 A2998 RMK A01 T00931064  RH  032%=      5-min Rain = 0
KFL1 200001Z 18002KT 09/M06 A2998 RMK A01 T00941063  RH  033%=      5-min Rain = 0
KFL1 200002Z 18002KT 09/M06 A2998 RMK A01 T00911064  RH  033%=      5-min Rain = 0
KFL1 200003Z 17002KT 09/M06 A2998 RMK A01 T00911063  RH  033%=      5-min Rain = 0
KFL1 200004Z 16002KT 09/M06 A2998 RMK A01 T00891064  RH  033%=      5-min Rain = 0
KFL1 200005Z 15001KT 09/M06 A2998 RMK A01 T00881063  RH  034%=      5-min Rain = 0
KFL1 200006Z 15001KT 09/M06 A2998 RMK A01 T00871061  RH  035%=      5-min Rain = 0
KFL1 200007Z 15001KT 08/M06 A2998 RMK A01 T00801063  RH  036%=      5-min Rain = 0
KFL1 200008Z 15001KT 07/M06 A2998 RMK A01 T00731063  RH  037%=      5-min Rain = 0
KFL1 200009Z 15000KT 06/M07 A2998 RMK A01 T00611066  RH  040%=      5-min Rain = 0
KFL1 200010Z 00000KT 05/M07 A2998 RMK A01 T00491068  RH  043%=      5-min Rain = 0
KFL1 200011Z 00000KT 04/M07 A2998 RMK A01 T00381068  RH  046%=      5-min Rain = 0
KFL1 200012Z 00000KT 03/M07 A2998 RMK A01 T00301068  RH  049%=      5-min Rain = 0
KFL1 200013Z 34000KT 03/M07 A2998 RMK A01 T00251067  RH  051%=      5-min Rain = 0
KFL1 200014Z 34001KT 02/M07 A2998 RMK A01 T00211067  RH  052%=      5-min Rain = 0
KFL1 200015Z 35001KT 02/M07 A2998 RMK A01 T00201066  RH  053%=      5-min Rain = 0
KFL1 200016Z 01001KT 02/M07 A2998 RMK A01 T00201065  RH  053%=      5-min Rain = 0
KFL1 200017Z 03001KT 02/M06 A2998 RMK A01 T00221064  RH  053%=      5-min Rain = 0
KFL1 200018Z 02002KT 03/M06 A2998 RMK A01 T00301061  RH  051%=      5-min Rain = 0
KFL1 200019Z 02002KT 04/M06 A2998 RMK A01 T00351060  RH  050%=      5-min Rain = 0
KFL1 200020Z 02002KT 04/M06 A2998 RMK A01 T00371061  RH  049%=      5-min Rain = 0
KFL1 200021Z 02002KT 03/M06 A2998 RMK A01 T00341063  RH  049%=      5-min Rain = 0
KFL1 200022Z 03002KT 03/M06 A2998 RMK A01 T00321064  RH  050%=      5-min Rain = 0
KFL1 200023Z 03002KT 03/M06 A2998 RMK A01 T00321062  RH  050%=      5-min Rain = 0
KFL1 200024Z 04002KT 03/M06 A2998 RMK A01 T00311062  RH  050%=      5-min Rain = 0
KFL1 200025Z 04002KT 03/M06 A2998 RMK A01 T00311061  RH  051%=      5-min Rain = 0
KFL1 200026Z 05002KT 03/M06 A2998 RMK A01 T00321061  RH  051%=      5-min Rain = 0
KFL1 200027Z 05002KT 03/M06 A2998 RMK A01 T00341059  RH  051%=      5-min Rain = 0
KFL1 200028Z 06002KT 04/M06 A2998 RMK A01 T00371059  RH  049%=      5-min Rain = 0
KFL1 200029Z 05002KT 04/M06 A2998 RMK A01 T00421060  RH  047%=      5-min Rain = 0
KFL1 200030Z 05003KT 05/M06 A2998 RMK A01 T00471059  RH  046%=      5-min Rain = 0
KFL1 200031Z 05003KT 05/M06 A2998 RMK A01 T00471060  RH  046%=      5-min Rain = 0
KFL1 200032Z 05003KT 05/M06 A2998 RMK A01 T00461061  RH  046%=      5-min Rain = 0
KFL1 200033Z 04004KT 05/M06 A2998 RMK A01 T00471061  RH  045%=      5-min Rain = 0
KFL1 200034Z 04004KT 05/M06 A2998 RMK A01 T00501063  RH  044%=      5-min Rain = 0
KFL1 200035Z 05004KT 05/M06 A2998 RMK A01 T00541063  RH  043%=      5-min Rain = 0
KFL1 200036Z 05004KT 06/M06 A2998 RMK A01 T00601062  RH  041%=      5-min Rain = 0
KFL1 200037Z 05004KT 06/M06 A2997 RMK A01 T00631063  RH  040%=      5-min Rain = 0
KFL1 200038Z 05003KT 07/M06 A2997 RMK A01 T00671062  RH  039%=      5-min Rain = 0
KFL1 200039Z 05003KT 07/M06 A2997 RMK A01 T00681063  RH  039%=      5-min Rain = 0
KFL1 200040Z 05004KT 07/M06 A2998 RMK A01 T00701062  RH  038%=      5-min Rain = 0
KFL1 200041Z 05004KT 07/M06 A2997 RMK A01 T00711062  RH  038%=      5-min Rain = 0
KFL1 200042Z 05004KT 07/M06 A2997 RMK A01 T00721062  RH  038%=      5-min Rain = 0
KFL1 200043Z 05005KT 07/M06 A2997 RMK A01 T00721063  RH  038%=      5-min Rain = 0
KFL1 200044Z 04006KT 07/M06 A2997 RMK A01 T00721064  RH  037%=      5-min Rain = 0
KFL1 200045Z 04007KT 07/M07 A2997 RMK A01 T00711065  RH  037%=      5-min Rain = 0
KFL1 200046Z 04006KT 07/M06 A2997 RMK A01 T00721064  RH  037%=      5-min Rain = 0
KFL1 200047Z 04006KT 07/M06 A2997 RMK A01 T00721064  RH  037%=      5-min Rain = 0
KFL1 200048Z 04004KT 07/M07 A2997 RMK A01 T00721065  RH  037%=      5-min Rain = 0
KFL1 200049Z 04004KT 07/M06 A2997 RMK A01 T00741064  RH  037%=      5-min Rain = 0
KFL1 200050Z 04005KT 08/M06 A2997 RMK A01 T00761063  RH  037%=      5-min Rain = 0
KFL1 200051Z 05005KT 08/M06 A2997 RMK A01 T00761064  RH  037%=      5-min Rain = 0
KFL1 200052Z 05004KT 08/M06 A2997 RMK A01 T00761064  RH  036%=      5-min Rain = 0
KFL1 200053Z 05005KT 08/M06 A2997 RMK A01 T00791063  RH  036%=      5-min Rain = 0
KFL1 200054Z 05004KT 08/M06 A2997 RMK A01 T00801063  RH  036%=      5-min Rain = 0
KFL1 200055Z 06004KT 08/M06 A2997 RMK A01 T00811064  RH  035%=      5-min Rain = 0
KFL1 200056Z 06004KT 08/M06 A2997 RMK A01 T00831064  RH  035%=      5-min Rain = 0
KFL1 200057Z 07004KT 09/M06 A2997 RMK A01 T00851063  RH  034%=      5-min Rain = 0
KFL1 200058Z 07004KT 09/M06 A2997 RMK A01 T00861063  RH  034%=      5-min Rain = 0
KFL1 200059Z 08004KT 09/M06 A2997 RMK A01 T00861063  RH  034%=      5-min Rain = 0
KFL1 200100Z 07003KT 09/M06 A2997 RMK A01 T00871062  RH  034%=      5-min Rain = 0
KFL1 200101Z 06004KT 09/M06 A2997 RMK A01 T00861064  RH  034%=      5-min Rain = 0
KFL1 200102Z 05004KT 09/M06 A2997 RMK A01 T00881062  RH  034%=      5-min Rain = 0
KFL1 200103Z 05004KT 09/M06 A2997 RMK A01 T00871063  RH  034%=      5-min Rain = 0
KFL1 200104Z 05005KT 09/M06 A2997 RMK A01 T00861063  RH  034%=      5-min Rain = 0
KFL1 200105Z 05005KT 09/M06 A2997 RMK A01 T00851063  RH  035%=      5-min Rain = 0
KFL1 200106Z 05005KT 08/M06 A2997 RMK A01 T00841062  RH  035%=      5-min Rain = 0
KFL1 200107Z 05005KT 08/M06 A2997 RMK A01 T00831061  RH  035%=      5-min Rain = 0
KFL1 200108Z 05006KT 08/M06 A2997 RMK A01 T00811063  RH  035%=      5-min Rain = 0
KFL1 200109Z 06005KT 08/M06 A2997 RMK A01 T00811064  RH  035%=      5-min Rain = 0
KFL1 200110Z 05006KT 08/M06 A2997 RMK A01 T00811064  RH  035%=      5-min Rain = 0
KFL1 200111Z 05006KT 08/M07 A2997 RMK A01 T00811065  RH  035%=      5-min Rain = 0
KFL1 200112Z 05006KT 08/M07 A2997 RMK A01 T00821065  RH  035%=      5-min Rain = 0
KFL1 200113Z 04006KT 08/M07 A2997 RMK A01 T00821066  RH  034%=      5-min Rain = 0
KFL1 200114Z 05006KT 08/M07 A2997 RMK A01 T00831066  RH  034%=      5-min Rain = 0
KFL1 200115Z 05006KT 09/M07 A2997 RMK A01 T00861065  RH  034%=      5-min Rain = 0
KFL1 200116Z 05005KT 09/M07 A2997 RMK A01 T00851066  RH  034%=      5-min Rain = 0
KFL1 200117Z 05005KT 09/M07 A2997 RMK A01 T00851067  RH  034%=      5-min Rain = 0
KFL1 200118Z 04005KT 09/M07 A2997 RMK A01 T00861066  RH  033%=      5-min Rain = 0
KFL1 200119Z 04005KT 09/M07 A2997 RMK A01 T00871065  RH  033%=      5-min Rain = 0
KFL1 200120Z 04004KT 09/M07 A2997 RMK A01 T00871066  RH  033%=      5-min Rain = 0
KFL1 200121Z 04005KT 09/M07 A2997 RMK A01 T00881065  RH  033%=      5-min Rain = 0
KFL1 200122Z 04004KT 09/M07 A2997 RMK A01 T00881065  RH  033%=      5-min Rain = 0
KFL1 200123Z 03004KT 09/M06 A2997 RMK A01 T00861063  RH  034%=      5-min Rain = 0
KFL1 200124Z 03004KT 08/M06 A2997 RMK A01 T00801060  RH  036%=      5-min Rain = 0
KFL1 200125Z 03005KT 07/M06 A2997 RMK A01 T00721062  RH  038%=      5-min Rain = 0
KFL1 200126Z 02006KT 07/M06 A2997 RMK A01 T00671062  RH  039%=      5-min Rain = 0
KFL1 200127Z 02007KT 07/M06 A2997 RMK A01 T00661061  RH  040%=      5-min Rain = 0
KFL1 200128Z 02007KT 06/M06 A2997 RMK A01 T00631063  RH  040%=      5-min Rain = 0
KFL1 200129Z 02007KT 06/M06 A2997 RMK A01 T00641062  RH  040%=      5-min Rain = 0
KFL1 200130Z 02008KT 06/M06 A2997 RMK A01 T00641061  RH  040%=      5-min Rain = 0
KFL1 200131Z 02008KT 06/M06 A2997 RMK A01 T00641061  RH  040%=      5-min Rain = 0
KFL1 200132Z 02008KT 06/M06 A2997 RMK A01 T00641061  RH  040%=      5-min Rain = 0
KFL1 200133Z 03008KT 07/M06 A2997 RMK A01 T00651061  RH  040%=      5-min Rain = 0
KFL1 200134Z 03007KT 07/M06 A2997 RMK A01 T00671061  RH  039%=      5-min Rain = 0
KFL1 200135Z 03006KT 07/M06 A2997 RMK A01 T00701061  RH  039%=      5-min Rain = 0
KFL1 200136Z 03007KT 07/M06 A2997 RMK A01 T00721061  RH  038%=      5-min Rain = 0
KFL1 200137Z 03006KT 07/M06 A2997 RMK A01 T00741060  RH  038%=      5-min Rain = 0
KFL1 200138Z 03006KT 07/M06 A2997 RMK A01 T00731060  RH  038%=      5-min Rain = 0
KFL1 200139Z 04005KT 07/M06 A2997 RMK A01 T00731060  RH  038%=      5-min Rain = 0
KFL1 200140Z 03005KT 08/M06 A2997 RMK A01 T00751060  RH  038%=      5-min Rain = 0
KFL1 200141Z 03005KT 08/M06 A2997 RMK A01 T00771059  RH  038%=      5-min Rain = 0
KFL1 200142Z 03005KT 08/M06 A2997 RMK A01 T00761060  RH  038%=      5-min Rain = 0
KFL1 200143Z 03006KT 08/M06 A2997 RMK A01 T00761059  RH  038%=      5-min Rain = 0
KFL1 200144Z 03006KT 08/M06 A2996 RMK A01 T00761058  RH  038%=      5-min Rain = 0
KFL1 200145Z 03007KT 08/M06 A2996 RMK A01 T00761058  RH  038%=      5-min Rain = 0
KFL1 200146Z 03007KT 08/M06 A2996 RMK A01 T00771058  RH  038%=      5-min Rain = 0
KFL1 200147Z 03007KT 08/M06 A2996 RMK A01 T00771061  RH  037%=      5-min Rain = 0
KFL1 200148Z 03008KT 08/M06 A2996 RMK A01 T00791061  RH  037%=      5-min Rain = 0
KFL1 200149Z 03008KT 08/M06 A2996 RMK A01 T00811062  RH  036%=      5-min Rain = 0
KFL1 200150Z 03007KT 08/M06 A2996 RMK A01 T00821062  RH  035%=      5-min Rain = 0
KFL1 200151Z 03007KT 09/M06 A2996 RMK A01 T00851062  RH  035%=      5-min Rain = 0
KFL1 200152Z 03006KT 09/M06 A2996 RMK A01 T00851063  RH  035%=      5-min Rain = 0
KFL1 200153Z 04006KT 09/M06 A2996 RMK A01 T00861063  RH  034%=      5-min Rain = 0
KFL1 200154Z 04005KT 09/M06 A2996 RMK A01 T00871063  RH  034%=      5-min Rain = 0
KFL1 200155Z 03005KT 09/M06 A2996 RMK A01 T00891063  RH  033%=      5-min Rain = 0
KFL1 200156Z 03005KT 09/M06 A2996 RMK A01 T00911062  RH  033%=      5-min Rain = 0
KFL1 200157Z 03005KT 09/M06 A2996 RMK A01 T00901064  RH  033%=      5-min Rain = 0
KFL1 200158Z 03006KT 09/M06 A2996 RMK A01 T00911062  RH  033%=      5-min Rain = 0
KFL1 200159Z 03006KT 09/M06 A2996 RMK A01 T00901061  RH  034%=      5-min Rain = 0
KFL1 200200Z 03006KT 09/M06 A2996 RMK A01 T00881061  RH  034%=      5-min Rain = 0
KFL1 200201Z 03006KT 09/M06 A2996 RMK A01 T00871061  RH  035%=      5-min Rain = 0
KFL1 200202Z 03005KT 09/M06 A2996 RMK A01 T00871059  RH  035%=      5-min Rain = 0
KFL1 200203Z 03006KT 09/M06 A2996 RMK A01 T00861060  RH  035%=      5-min Rain = 0
KFL1 200204Z 03005KT 09/M06 A2996 RMK A01 T00861060  RH  035%=      5-min Rain = 0
KFL1 200205Z 03006KT 09/M06 A2996 RMK A01 T00871060  RH  035%=      5-min Rain = 0
KFL1 200206Z 03007KT 09/M06 A2995 RMK A01 T00881060  RH  035%=      5-min Rain = 0
KFL1 200207Z 03006KT 09/M06 A2995 RMK A01 T00881060  RH  034%=      5-min Rain = 0
KFL1 200208Z 03005KT 09/M06 A2995 RMK A01 T00881061  RH  034%=      5-min Rain = 0
KFL1 200209Z 03004KT 09/M06 A2995 RMK A01 T00881061  RH  034%=      5-min Rain = 0
KFL1 200210Z 03004KT 09/M06 A2995 RMK A01 T00881060  RH  035%=      5-min Rain = 0
KFL1 200211Z 03005KT 09/M06 A2995 RMK A01 T00881057  RH  035%=      5-min Rain = 0
KFL1 200212Z 03005KT 09/M06 A2995 RMK A01 T00871059  RH  035%=      5-min Rain = 0
KFL1 200213Z 03005KT 09/M06 A2995 RMK A01 T00871057  RH  036%=      5-min Rain = 0
KFL1 200214Z 03005KT 09/M06 A2995 RMK A01 T00851056  RH  036%=      5-min Rain = 0
KFL1 200215Z 03006KT 08/M06 A2995 RMK A01 T00841055  RH  037%=      5-min Rain = 0
KFL1 200216Z 03005KT 08/M06 A2995 RMK A01 T00831055  RH  037%=      5-min Rain = 0
KFL1 200217Z 03006KT 09/M06 A2995 RMK A01 T00851057  RH  036%=      5-min Rain = 0
KFL1 200218Z 03006KT 09/M06 A2995 RMK A01 T00851057  RH  036%=      5-min Rain = 0
KFL1 200219Z 04006KT 09/M06 A2995 RMK A01 T00861061  RH  035%=      5-min Rain = 0
KFL1 200220Z 03006KT 09/M06 A2995 RMK A01 T00891062  RH  034%=      5-min Rain = 0
KFL1 200221Z 03006KT 09/M06 A2996 RMK A01 T00911062  RH  033%=      5-min Rain = 0
KFL1 200222Z 04005KT 09/M06 A2996 RMK A01 T00931062  RH  033%=      5-min Rain = 0
KFL1 200223Z 05003KT 09/M06 A2996 RMK A01 T00931062  RH  033%=      5-min Rain = 0
KFL1 200224Z 05003KT 09/M06 A2996 RMK A01 T00941057  RH  034%=      5-min Rain = 0
KFL1 200225Z 05003KT 09/M06 A2996 RMK A01 T00901058  RH  035%=      5-min Rain = 0
KFL1 200226Z 05003KT 09/M06 A2996 RMK A01 T00871059  RH  035%=      5-min Rain = 0
KFL1 200227Z 05003KT 08/M06 A2996 RMK A01 T00841059  RH  036%=      5-min Rain = 0
KFL1 200228Z 03003KT 08/M06 A2996 RMK A01 T00821059  RH  036%=      5-min Rain = 0
KFL1 200229Z 02003KT 08/M06 A2996 RMK A01 T00831058  RH  036%=      5-min Rain = 0
KFL1 200230Z 02004KT 08/M06 A2996 RMK A01 T00811057  RH  037%=      5-min Rain = 0
KFL1 200231Z 02004KT 08/M05 A2996 RMK A01 T00801052  RH  039%=      5-min Rain = 0
KFL1 200232Z 01004KT 08/M05 A2996 RMK A01 T00801047  RH  040%=      5-min Rain = 0
KFL1 200233Z 01002KT 08/M05 A2996 RMK A01 T00781045  RH  041%=      5-min Rain = 0
KFL1 200234Z 35001KT 08/M04 A2996 RMK A01 T00761044  RH  042%=      5-min Rain = 0
KFL1 200235Z 30001KT 08/M05 A2996 RMK A01 T00761045  RH  042%=      5-min Rain = 0
KFL1 200236Z 30000KT 08/M05 A2996 RMK A01 T00751054  RH  039%=      5-min Rain = 0
KFL1 200237Z 03000KT 08/M06 A2996 RMK A01 T00791058  RH  037%=      5-min Rain = 0
KFL1 200238Z 04001KT 08/M06 A2996 RMK A01 T00811056  RH  037%=      5-min Rain = 0
KFL1 200239Z 06001KT 08/M05 A2996 RMK A01 T00841053  RH  037%=      5-min Rain = 0
KFL1 200240Z 23001KT 09/M05 A2997 RMK A01 T00861049  RH  038%=      5-min Rain = 0
KFL1 200241Z 21006KT 09/M05 A2997 RMK A01 T00861047  RH  039%=      5-min Rain = 0
KFL1 200242Z 17005KT 09/M05 A2997 RMK A01 T00861049  RH  038%=      5-min Rain = 0
KFL1 200243Z 19003KT 09/M05 A2997 RMK A01 T00871052  RH  037%=      5-min Rain = 0
KFL1 200244Z 25003KT 09/M05 A2997 RMK A01 T00901051  RH  036%=      5-min Rain = 0
KFL1 200245Z 25003KT 09/M05 A2997 RMK A01 T00911047  RH  037%=      5-min Rain = 0
KFL1 200246Z 20001KT 09/M05 A2997 RMK A01 T00901049  RH  037%=      5-min Rain = 0
KFL1 200247Z 22003KT 09/M05 A2997 RMK A01 T00891046  RH  038%=      5-min Rain = 0
KFL1 200248Z 24003KT 09/M04 A2997 RMK A01 T00881044  RH  039%=      5-min Rain = 0
KFL1 200249Z 22005KT 09/M04 A2997 RMK A01 T00871044  RH  039%=      5-min Rain = 0
KFL1 200250Z 22006KT 08/M04 A2997 RMK A01 T00841040  RH  041%=      5-min Rain = 0
KFL1 200251Z 24007KT 08/M03 A2997 RMK A01 T00841030  RH  045%=      5-min Rain = 0
KFL1 200252Z 25006KT 08/M02 A2997 RMK A01 T00821017  RH  049%=      5-min Rain = 0
KFL1 200253Z 25006KT 08/M01 A2997 RMK A01 T00801011  RH  053%=      5-min Rain = 0
KFL1 200254Z 26003KT 08/M01 A2997 RMK A01 T00801006  RH  054%=      5-min Rain = 0
KFL1 200255Z 28002KT 08/M01 A2997 RMK A01 T00811005  RH  054%=      5-min Rain = 0
KFL1 200256Z 31004KT 08/M00 A2997 RMK A01 T00841004  RH  054%=      5-min Rain = 0
KFL1 200257Z 32005KT 09/M00 A2997 RMK A01 T00851001  RH  055%=      5-min Rain = 0
KFL1 200258Z 30004KT 08/M00 A2997 RMK A01 T00831004  RH  054%=      5-min Rain = 0
KFL1 200259Z 28003KT 09/M01 A2997 RMK A01 T00861006  RH  052%=      5-min Rain = 0
KFL1 200300Z 29003KT 09/M01 A2997 RMK A01 T00881008  RH  051%=      5-min Rain = 0
KFL1 200301Z 30002KT 09/M01 A2997 RMK A01 T00901008  RH  050%=      5-min Rain = 0
KFL1 200302Z 30004KT 09/M01 A2997 RMK A01 T00911006  RH  051%=      5-min Rain = 0
KFL1 200303Z 31006KT 09/00 A2997 RMK A01 T00900001  RH  053%=      5-min Rain = 0
KFL1 200304Z 30006KT 09/00 A2997 RMK A01 T00880004  RH  056%=      5-min Rain = 0
KFL1 200305Z 30006KT 08/00 A2997 RMK A01 T00840004  RH  057%=      5-min Rain = 0
KFL1 200306Z 29006KT 08/01 A2997 RMK A01 T00830006  RH  058%=      5-min Rain = 0
KFL1 200307Z 29006KT 08/00 A2997 RMK A01 T00810003  RH  058%=      5-min Rain = 0
KFL1 200308Z 29006KT 08/00 A2997 RMK A01 T008000-0  RH  057%=      5-min Rain = 0
KFL1 200309Z 28005KT 08/M00 A2997 RMK A01 T00801003  RH  056%=      5-min Rain = 0
KFL1 200310Z 29005KT 08/M00 A2997 RMK A01 T00821004  RH  055%=      5-min Rain = 0
KFL1 200311Z 29005KT 08/M00 A2997 RMK A01 T00831004  RH  054%=      5-min Rain = 0
KFL1 200312Z 29005KT 08/M00 A2996 RMK A01 T00841003  RH  054%=      5-min Rain = 0
KFL1 200313Z 30004KT 08/M00 A2996 RMK A01 T00831001  RH  055%=      5-min Rain = 0
KFL1 200314Z 30006KT 08/00 A2996 RMK A01 T008200-0  RH  056%=      5-min Rain = 0
KFL1 200315Z 29007KT 08/00 A2996 RMK A01 T00820001  RH  057%=      5-min Rain = 0
KFL1 200316Z 29006KT 08/M00 A2996 RMK A01 T00801001  RH  057%=      5-min Rain = 0
KFL1 200317Z 29006KT 08/M00 A2996 RMK A01 T00811001  RH  056%=      5-min Rain = 0
KFL1 200318Z 29006KT 08/00 A2996 RMK A01 T00820001  RH  057%=      5-min Rain = 0
KFL1 200319Z 30005KT 08/00 A2996 RMK A01 T00830002  RH  056%=      5-min Rain = 0
KFL1 200320Z 31005KT 08/00 A2996 RMK A01 T00830002  RH  057%=      5-min Rain = 0
KFL1 200321Z 31005KT 08/00 A2996 RMK A01 T00830003  RH  057%=      5-min Rain = 0
KFL1 200322Z 30005KT 08/00 A2996 RMK A01 T00840004  RH  057%=      5-min Rain = 0
KFL1 200323Z 32004KT 08/00 A2995 RMK A01 T00830004  RH  058%=      5-min Rain = 0
KFL1 200324Z 32003KT 08/00 A2995 RMK A01 T00810004  RH  058%=      5-min Rain = 0
KFL1 200325Z 32004KT 08/00 A2995 RMK A01 T00810004  RH  058%=      5-min Rain = 0
KFL1 200326Z 32004KT 08/00 A2995 RMK A01 T00800003  RH  058%=      5-min Rain = 0
KFL1 200327Z 34004KT 08/00 A2995 RMK A01 T00800004  RH  059%=      5-min Rain = 0
KFL1 200328Z 34004KT 08/01 A2995 RMK A01 T00790005  RH  060%=      5-min Rain = 0
KFL1 200329Z 35004KT 08/01 A2995 RMK A01 T00780006  RH  060%=      5-min Rain = 0
KFL1 200330Z 36004KT 08/01 A2995 RMK A01 T00770006  RH  061%=      5-min Rain = 0
KFL1 200331Z 36004KT 08/01 A2995 RMK A01 T00780008  RH  061%=      5-min Rain = 0
KFL1 200332Z 36004KT 08/01 A2995 RMK A01 T00770007  RH  061%=      5-min Rain = 0
KFL1 200333Z 00004KT 08/01 A2995 RMK A01 T00760006  RH  061%=      5-min Rain = 0
KFL1 200334Z 00004KT 08/01 A2995 RMK A01 T00760007  RH  062%=      5-min Rain = 0
KFL1 200335Z 00004KT 08/01 A2995 RMK A01 T00750006  RH  062%=      5-min Rain = 0
KFL1 200336Z 00005KT 08/01 A2994 RMK A01 T00760006  RH  061%=      5-min Rain = 0
KFL1 200337Z 00005KT 08/01 A2994 RMK A01 T00760007  RH  062%=      5-min Rain = 0
KFL1 200338Z 00006KT 08/01 A2994 RMK A01 T00760010  RH  063%=      5-min Rain = 0
KFL1 200339Z 36006KT 08/01 A2994 RMK A01 T00750010  RH  063%=      5-min Rain = 0
KFL1 200340Z 36005KT 07/01 A2994 RMK A01 T00730009  RH  064%=      5-min Rain = 0
KFL1 200341Z 36005KT 07/01 A2994 RMK A01 T00720009  RH  065%=      5-min Rain = 0
KFL1 200342Z 36005KT 07/01 A2994 RMK A01 T00700010  RH  065%=      5-min Rain = 0
KFL1 200343Z 36005KT 07/01 A2994 RMK A01 T00680010  RH  066%=      5-min Rain = 0
KFL1 200344Z 36005KT 07/01 A2994 RMK A01 T00680010  RH  067%=      5-min Rain = 0
KFL1 200345Z 36005KT 07/01 A2994 RMK A01 T00670010  RH  067%=      5-min Rain = 0
KFL1 200346Z 35006KT 07/01 A2994 RMK A01 T00690012  RH  067%=      5-min Rain = 0
KFL1 200347Z 35005KT 07/01 A2994 RMK A01 T00660010  RH  067%=      5-min Rain = 0
KFL1 200348Z 35005KT 07/01 A2994 RMK A01 T00660011  RH  068%=      5-min Rain = 0
KFL1 200349Z 36005KT 06/01 A2994 RMK A01 T00640010  RH  068%=      5-min Rain = 0
KFL1 200350Z 00005KT 07/01 A2994 RMK A01 T00650011  RH  068%=      5-min Rain = 0
KFL1 200351Z 00005KT 06/01 A2994 RMK A01 T00640009  RH  068%=      5-min Rain = 0
KFL1 200352Z 36005KT 07/01 A2995 RMK A01 T00650010  RH  068%=      5-min Rain = 0
KFL1 200353Z 35004KT 06/01 A2995 RMK A01 T00640009  RH  068%=      5-min Rain = 0
KFL1 200354Z 00004KT 06/01 A2995 RMK A01 T00630009  RH  068%=      5-min Rain = 0
KFL1 200355Z 00004KT 06/01 A2995 RMK A01 T00630009  RH  068%=      5-min Rain = 0
KFL1 200356Z 00004KT 06/01 A2995 RMK A01 T00630007  RH  067%=      5-min Rain = 0
KFL1 200357Z 00004KT 07/01 A2995 RMK A01 T00660008  RH  066%=      5-min Rain = 0
KFL1 200358Z 36004KT 07/01 A2994 RMK A01 T00670008  RH  066%=      5-min Rain = 0
KFL1 200359Z 36004KT 07/01 A2994 RMK A01 T00660009  RH  067%=      5-min Rain = 0
KFL1 200400Z 35004KT 07/01 A2994 RMK A01 T00670009  RH  067%=      5-min Rain = 0
KFL1 200401Z 35004KT 07/01 A2994 RMK A01 T00660009  RH  067%=      5-min Rain = 0
KFL1 200402Z 35004KT 07/01 A2994 RMK A01 T00650008  RH  067%=      5-min Rain = 0
KFL1 200403Z 35004KT 07/01 A2994 RMK A01 T00650008  RH  067%=      5-min Rain = 0
KFL1 200404Z 35004KT 07/01 A2994 RMK A01 T00670010  RH  067%=      5-min Rain = 0
KFL1 200405Z 35004KT 07/01 A2994 RMK A01 T00660007  RH  066%=      5-min Rain = 0
KFL1 200406Z 34004KT 07/01 A2994 RMK A01 T00670007  RH  066%=      5-min Rain = 0
KFL1 200407Z 34004KT 07/01 A2994 RMK A01 T00660006  RH  065%=      5-min Rain = 0
KFL1 200408Z 34004KT 07/01 A2994 RMK A01 T00680006  RH  065%=      5-min Rain = 0
KFL1 200409Z 34004KT 07/01 A2994 RMK A01 T00690005  RH  064%=      5-min Rain = 0
KFL1 200410Z 33004KT 07/00 A2994 RMK A01 T00700004  RH  063%=      5-min Rain = 0
KFL1 200411Z 33004KT 07/00 A2994 RMK A01 T00700004  RH  063%=      5-min Rain = 0
KFL1 200412Z 33004KT 07/01 A2994 RMK A01 T00720005  RH  062%=      5-min Rain = 0
KFL1 200413Z 33004KT 07/00 A2994 RMK A01 T00720004  RH  062%=      5-min Rain = 0
KFL1 200414Z 33004KT 07/00 A2994 RMK A01 T00720003  RH  062%=      5-min Rain = 0
KFL1 200415Z 33004KT 07/00 A2994 RMK A01 T00730004  RH  061%=      5-min Rain = 0
KFL1 200416Z 33004KT 07/00 A2994 RMK A01 T00740003  RH  061%=      5-min Rain = 0
KFL1 200417Z 33004KT 07/00 A2994 RMK A01 T00730002  RH  061%=      5-min Rain = 0
KFL1 200418Z 33004KT 07/00 A2994 RMK A01 T00730002  RH  061%=      5-min Rain = 0
KFL1 200419Z 32004KT 07/00 A2994 RMK A01 T00740002  RH  060%=      5-min Rain = 0
KFL1 200420Z 31003KT 08/00 A2994 RMK A01 T00750003  RH  060%=      5-min Rain = 0
KFL1 200421Z 31004KT 07/00 A2994 RMK A01 T00740001  RH  060%=      5-min Rain = 0
KFL1 200422Z 31004KT 07/00 A2994 RMK A01 T00740001  RH  060%=      5-min Rain = 0
KFL1 200423Z 31004KT 07/00 A2994 RMK A01 T00740001  RH  060%=      5-min Rain = 0
KFL1 200424Z 30004KT 07/00 A2994 RMK A01 T00740001  RH  060%=      5-min Rain = 0
KFL1 200425Z 28004KT 07/00 A2994 RMK A01 T00740001  RH  060%=      5-min Rain = 0
KFL1 200426Z 27005KT 07/00 A2994 RMK A01 T00730000  RH  060%=      5-min Rain = 0
KFL1 200427Z 27005KT 07/00 A2994 RMK A01 T00730001  RH  060%=      5-min Rain = 0
KFL1 200428Z 27005KT 07/00 A2994 RMK A01 T007300-0  RH  060%=      5-min Rain = 0
KFL1 200429Z 28005KT 07/M00 A2994 RMK A01 T00731001  RH  059%=      5-min Rain = 0
KFL1 200430Z 28005KT 07/M00 A2994 RMK A01 T00731001  RH  059%=      5-min Rain = 0
KFL1 200431Z 28005KT 07/M00 A2994 RMK A01 T00731002  RH  059%=      5-min Rain = 0
KFL1 200432Z 29006KT 07/M00 A2994 RMK A01 T00731001  RH  059%=      5-min Rain = 0
KFL1 200433Z 29005KT 07/M00 A2994 RMK A01 T00731001  RH  059%=      5-min Rain = 0
KFL1 200434Z 29005KT 07/00 A2994 RMK A01 T007300-0  RH  060%=      5-min Rain = 0
KFL1 200435Z 30004KT 07/M00 A2994 RMK A01 T00721001  RH  060%=      5-min Rain = 0
KFL1 200436Z 30004KT 07/M00 A2994 RMK A01 T00711003  RH  059%=      5-min Rain = 0
KFL1 200437Z 31004KT 07/M00 A2993 RMK A01 T00721003  RH  059%=      5-min Rain = 0
KFL1 200438Z 31004KT 07/M00 A2993 RMK A01 T00721003  RH  059%=      5-min Rain = 0
KFL1 200439Z 31004KT 07/M00 A2993 RMK A01 T00731001  RH  059%=      5-min Rain = 0
KFL1 200440Z 31004KT 07/M00 A2993 RMK A01 T00721003  RH  059%=      5-min Rain = 0
KFL1 200441Z 32003KT 07/M00 A2993 RMK A01 T00721002  RH  059%=      5-min Rain = 0
KFL1 200442Z 33003KT 07/M00 A2993 RMK A01 T00721002  RH  059%=      5-min Rain = 0
KFL1 200443Z 34004KT 07/00 A2993 RMK A01 T007200-0  RH  060%=      5-min Rain = 0
KFL1 200444Z 34004KT 07/M00 A2993 RMK A01 T00711001  RH  060%=      5-min Rain = 0
KFL1 200445Z 35004KT 07/M00 A2993 RMK A01 T00711001  RH  060%=      5-min Rain = 0
KFL1 200446Z 35004KT 07/M00 A2993 RMK A01 T00701001  RH  060%=      5-min Rain = 0
KFL1 200447Z 36004KT 07/M00 A2993 RMK A01 T00711002  RH  060%=      5-min Rain = 0
KFL1 200448Z 00004KT 07/00 A2993 RMK A01 T00730001  RH  060%=      5-min Rain = 0
KFL1 200449Z 00004KT 07/00 A2993 RMK A01 T007200-0  RH  060%=      5-min Rain = 0
KFL1 200450Z 00005KT 07/M00 A2993 RMK A01 T00711001  RH  060%=      5-min Rain = 0
KFL1 200451Z 00005KT 07/M00 A2992 RMK A01 T00711001  RH  060%=      5-min Rain = 0
KFL1 200452Z 00005KT 07/00 A2992 RMK A01 T00710000  RH  061%=      5-min Rain = 0
KFL1 200453Z 35005KT 07/00 A2993 RMK A01 T00710001  RH  061%=      5-min Rain = 0
KFL1 200454Z 35005KT 07/00 A2993 RMK A01 T00690001  RH  062%=      5-min Rain = 0
KFL1 200455Z 35005KT 07/00 A2993 RMK A01 T00680001  RH  062%=      5-min Rain = 0
KFL1 200456Z 35005KT 07/00 A2993 RMK A01 T00670001  RH  063%=      5-min Rain = 0
KFL1 200457Z 34004KT 07/00 A2993 RMK A01 T00670002  RH  063%=      5-min Rain = 0
KFL1 200458Z 34004KT 07/00 A2993 RMK A01 T00650001  RH  064%=      5-min Rain = 0
KFL1 200459Z 34004KT 07/00 A2993 RMK A01 T00660002  RH  064%=      5-min Rain = 0
KFL1 200500Z 35004KT 07/00 A2993 RMK A01 T00650002  RH  064%=      5-min Rain = 0
KFL1 200501Z 35005KT 07/00 A2993 RMK A01 T00660003  RH  064%=      5-min Rain = 0
KFL1 200502Z 35005KT 07/00 A2992 RMK A01 T00650002  RH  064%=      5-min Rain = 0
KFL1 200503Z 35004KT 07/00 A2992 RMK A01 T00650002  RH  064%=      5-min Rain = 0
KFL1 200504Z 35005KT 07/00 A2992 RMK A01 T00670002  RH  063%=      5-min Rain = 0
KFL1 200505Z 35005KT 07/00 A2992 RMK A01 T00680001  RH  062%=      5-min Rain = 0
KFL1 200506Z 35005KT 07/00 A2992 RMK A01 T00690002  RH  062%=      5-min Rain = 0
KFL1 200507Z 35004KT 07/00 A2992 RMK A01 T00680002  RH  062%=      5-min Rain = 0
KFL1 200508Z 36005KT 07/00 A2992 RMK A01 T00680001  RH  062%=      5-min Rain = 0
KFL1 200509Z 00004KT 07/00 A2992 RMK A01 T00690003  RH  063%=      5-min Rain = 0
KFL1 200510Z 01004KT 07/00 A2992 RMK A01 T00690003  RH  063%=      5-min Rain = 0
KFL1 200511Z 36003KT 07/00 A2992 RMK A01 T00670001  RH  063%=      5-min Rain = 0
KFL1 200512Z 30001KT 07/00 A2992 RMK A01 T00670001  RH  063%=      5-min Rain = 0
KFL1 200513Z 28002KT 07/00 A2992 RMK A01 T00670001  RH  063%=      5-min Rain = 0
KFL1 200514Z 31002KT 07/00 A2992 RMK A01 T00670001  RH  063%=      5-min Rain = 0
KFL1 200515Z 32002KT 07/00 A2992 RMK A01 T006700-0  RH  062%=      5-min Rain = 0
KFL1 200516Z 32003KT 07/M00 A2992 RMK A01 T00671001  RH  062%=      5-min Rain = 0
KFL1 200517Z 31003KT 07/00 A2992 RMK A01 T006700-0  RH  062%=      5-min Rain = 0
KFL1 200518Z 28003KT 07/M00 A2992 RMK A01 T00671001  RH  062%=      5-min Rain = 0
KFL1 200519Z 29003KT 07/00 A2992 RMK A01 T006700-0  RH  062%=      5-min Rain = 0
KFL1 200520Z 31003KT 07/M00 A2992 RMK A01 T00661001  RH  062%=      5-min Rain = 0
KFL1 200521Z 32003KT 07/M00 A2992 RMK A01 T00661001  RH  062%=      5-min Rain = 0
KFL1 200522Z 32003KT 07/M00 A2992 RMK A01 T00671001  RH  062%=      5-min Rain = 0
KFL1 200523Z 33002KT 07/M00 A2992 RMK A01 T00651002  RH  062%=      5-min Rain = 0
KFL1 200524Z 32002KT 07/M00 A2992 RMK A01 T00651003  RH  062%=      5-min Rain = 0
KFL1 200525Z 33002KT 07/M00 A2992 RMK A01 T00671001  RH  062%=      5-min Rain = 0
KFL1 200526Z 34002KT 07/M00 A2992 RMK A01 T00671002  RH  062%=      5-min Rain = 0
KFL1 200527Z 34002KT 07/M00 A2992 RMK A01 T00681001  RH  061%=      5-min Rain = 0
KFL1 200528Z 34002KT 07/M00 A2992 RMK A01 T00691001  RH  061%=      5-min Rain = 0
KFL1 200529Z 35002KT 07/M00 A2992 RMK A01 T00691002  RH  061%=      5-min Rain = 0
KFL1 200530Z 34002KT 07/M00 A2992 RMK A01 T00691002  RH  060%=      5-min Rain = 0
KFL1 200531Z 34003KT 07/M00 A2992 RMK A01 T00711001  RH  060%=      5-min Rain = 0
KFL1 200532Z 34002KT 07/00 A2992 RMK A01 T007100-0  RH  060%=      5-min Rain = 0
KFL1 200533Z 35002KT 07/M00 A2992 RMK A01 T00711001  RH  060%=      5-min Rain = 0
KFL1 200534Z 00002KT 07/00 A2992 RMK A01 T00720001  RH  060%=      5-min Rain = 0
KFL1 200535Z 00001KT 07/M00 A2992 RMK A01 T00711001  RH  060%=      5-min Rain = 0
KFL1 200536Z 02001KT 07/M00 A2992 RMK A01 T00711001  RH  060%=      5-min Rain = 0
KFL1 200537Z 04001KT 07/M00 A2992 RMK A01 T00701001  RH  060%=      5-min Rain = 0
KFL1 200538Z 05001KT 07/M00 A2992 RMK A01 T00701001  RH  061%=      5-min Rain = 0
KFL1 200539Z 07001KT 07/00 A2992 RMK A01 T00710000  RH  061%=      5-min Rain = 0
KFL1 200540Z 06001KT 07/M00 A2992 RMK A01 T00701001  RH  061%=      5-min Rain = 0
KFL1 200541Z 06001KT 07/00 A2992 RMK A01 T007100-0  RH  060%=      5-min Rain = 0
KFL1 200542Z 05001KT 07/M00 A2992 RMK A01 T00711001  RH  060%=      5-min Rain = 0
KFL1 200543Z 02001KT 07/00 A2992 RMK A01 T007200-0  RH  060%=      5-min Rain = 0
KFL1 200544Z 01001KT 07/00 A2992 RMK A01 T00720000  RH  060%=      5-min Rain = 0
KFL1 200545Z 01001KT 07/M00 A2992 RMK A01 T00721001  RH  060%=      5-min Rain = 0
KFL1 200546Z 01002KT 07/00 A2991 RMK A01 T00730000  RH  060%=      5-min Rain = 0
KFL1 200547Z 00002KT 07/00 A2991 RMK A01 T00740000  RH  060%=      5-min Rain = 0
KFL1 200548Z 01003KT 07/00 A2991 RMK A01 T007200-0  RH  060%=      5-min Rain = 0
KFL1 200549Z 02004KT 07/00 A2991 RMK A01 T007100-0  RH  060%=      5-min Rain = 0
KFL1 200550Z 02004KT 07/00 A2991 RMK A01 T00720001  RH  061%=      5-min Rain = 0
KFL1 200551Z 03004KT 07/00 A2991 RMK A01 T00710001  RH  061%=      5-min Rain = 0
KFL1 200552Z 03004KT 07/00 A2991 RMK A01 T007100-0  RH  060%=      5-min Rain = 0
KFL1 200553Z 03003KT 07/00 A2991 RMK A01 T00720001  RH  060%=      5-min Rain = 0
KFL1 200554Z 03004KT 07/00 A2991 RMK A01 T00720001  RH  060%=      5-min Rain = 0
KFL1 200555Z 03004KT 07/M00 A2991 RMK A01 T00711001  RH  060%=      5-min Rain = 0
KFL1 200556Z 04004KT 07/00 A2991 RMK A01 T007200-0  RH  060%=      5-min Rain = 0
KFL1 200557Z 04005KT 07/M00 A299 RMK A01 T00711001  RH  060%=      5-min Rain = 0
KFL1 200558Z 04004KT 07/00 A299 RMK A01 T00720000  RH  060%=      5-min Rain = 0
KFL1 200559Z 04004KT 07/00 A299 RMK A01 T007200-0  RH  060%=      5-min Rain = 0

Page generated in 0.1316 seconds.